Return to Metar
METAR CYNL 221200Z AUTO ///// 9SM CLR M19/M23 A2980 RMK AO1 SLP164
METAR CYNL 221100Z AUTO 19007KT 9SM CLR M19/M22 A2981 RMK AO1 PRESFR SLP162
METAR CYNL 221000Z AUTO 20005KT 9SM CLR M19/M22 A2984 RMK AO1 PRESFR SLP171
METAR CYNL 220900Z AUTO 21006KT 9SM CLR M18/M22 A2986 RMK AO1 SLP180
METAR CYNL 220800Z AUTO 22006KT 9SM CLR M18/M22 A2988 RMK AO1 SLP184
METAR CYNL 220700Z AUTO 20007KT 9SM FEW090 M18/M22 A2989 RMK AO1 SLP189
METAR CYNL 220600Z AUTO 20005KT 9SM BKN110 M19/M22 A2990 RMK AO1 SLP196
METAR CYNL 220500Z AUTO ///// 9SM CLR M19/M22 A2992 RMK AO1 SLP205
METAR CYNL 220400Z AUTO 20006KT 9SM FEW120 M19/M22 A2994 RMK AO1 PRESFR SLP211
METAR CYNL 220300Z AUTO 21004KT 9SM CLR M20/M23 A2996 RMK AO1 SLP230
METAR CYNL 220200Z AUTO 20002KT 9SM CLR M22/M25 A2998 RMK AO1 PRESFR SLP245
METAR CYNL 220100Z AUTO 19003KT 9SM CLR M19/M23 A3000 RMK AO1 SLP250
METAR CYNL 220000Z AUTO 22005KT 9SM CLR M17/M21 A3002 RMK AO1 SLP254
METAR CYNL 212300Z AUTO 21005KT 9SM CLR M15/M20 A3004 RMK AO1 SLP259
SPECI CYNL 212219Z AUTO 23005KT 9SM SCT018 M14/M19 A3005 RMK AO1 SLP260
METAR CYNL 212200Z AUTO 23006KT 9SM BKN017 M14/M20 A3006 RMK AO1 SLP263
SPECI CYNL 212145Z AUTO ///// 9SM BKN018 M15/M20 A3006 RMK AO1 SLP265
METAR CYNL 212100Z AUTO 24005KT 9SM OVC034 M15/M20 A3007 RMK AO1 SLP268
METAR CYNL 212000Z AUTO 23006KT 9SM CLR M16/M21 A3008 RMK AO1 SLP275
METAR CYNL 211900Z AUTO 22004KT 9SM SCT060 M17/M21 A3010 RMK AO1 SLP281
METAR CYNL 211800Z AUTO 26004KT 9SM OVC062 M18/M22 A3011 RMK AO1 SLP284
METAR CYNL 211700Z AUTO 26004KT 9SM OVC066 M19/M23 A3011 RMK AO1 SLP284
METAR CYNL 211600Z AUTO ///// 9SM CLR M24/M29 A3012 RMK AO1 SLP295
METAR CYNL 211500Z AUTO ///// 9SM CLR M30/M34 A3012 RMK AO1 SLP302
METAR CYNL 211400Z AUTO ///// 9SM CLR M31/M35 A3013 RMK AO1 SLP304
METAR CYNL 211300Z AUTO ///// 9SM CLR M32/M36 A3014 RMK AO1 SLP305
METAR CYNL 211200Z AUTO ///// 9SM CLR M32/M36 A3013 RMK AO1 SLP298
METAR CYNL 211100Z AUTO ///// 9SM CLR M31/M35 A3013 RMK AO1 SLP293
METAR CYNL 211000Z AUTO ///// 9SM CLR M31/M35 A3013 RMK AO1 SLP291
METAR CYNL 210900Z AUTO ///// 9SM CLR M32/M37 A3014 RMK AO1 SLP293
METAR CYNL 210800Z AUTO 24003KT 9SM CLR M32/M37 A3013 RMK AO1 SLP288
METAR CYNL 210700Z AUTO ///// 9SM CLR M31/M36 A3012 RMK AO1 SLP287
SPECI CYNL 210616Z AUTO 00000KT 9SM SCT022 M30/M34 A3012 RMK AO1 SLP284
METAR CYNL 210600Z AUTO 00000KT 9SM OVC022 M29/M34 A3011 RMK AO1 SLP283
SPECI CYNL 210542Z AUTO 00000KT 9SM BKN022 M30/M34 A3011 RMK AO1 SLP285
METAR CYNL 210500Z AUTO 00000KT 9SM FEW023 M30/M34 A3010 RMK AO1 SLP281
SPECI CYNL 210448Z AUTO 00000KT 9SM SCT023 M29/M33 A3010 RMK AO1 SLP283
SPECI CYNL 210435Z AUTO 00000KT 9SM BKN023 M29/M33 A3010 RMK AO1 SLP282
METAR CYNL 210400Z AUTO 00000KT 9SM CLR M29/M33 A3009 RMK AO1 SLP279
METAR CYNL 210300Z AUTO 31002KT 9SM CLR M26/M30 A3008 RMK AO1 SLP274
METAR CYNL 210200Z AUTO 00000KT 9SM CLR M24/M28 A3008 RMK AO1 SLP273
METAR CYNL 210100Z AUTO ///// 9SM CLR M20/M24 A3007 RMK AO1 PRESRR SLP264
METAR CYNL 210000Z AUTO 03005KT 9SM CLR M18/M23 A3005 RMK AO1 SLP254
METAR CYNL 202300Z AUTO 04004KT 9SM CLR M16/M22 A3003 RMK AO1 SLP246
METAR CYNL 202200Z AUTO ///// 9SM CLR M15/M21 A3002 RMK AO1 SLP243
METAR CYNL 202100Z AUTO 00000KT 9SM CLR M15/M21 A3001 RMK AO1 SLP240
METAR CYNL 202000Z AUTO 06003KT 9SM CLR M16/M21 A3000 RMK AO1 SLP239
METAR CYNL 201900Z AUTO 10005KT 9SM CLR M17/M22 A2999 RMK AO1 SLP237
METAR CYNL 201800Z AUTO 09004KT 9SM CLR M18/M22 A2997 RMK AO1 SLP232
METAR CYNL 201700Z AUTO 07004KT 9SM CLR M20/M23 A2996 RMK AO1 SLP229
METAR CYNL 201600Z AUTO 06004KT 9SM CLR M21/M25 A2995 RMK AO1 SLP223
METAR CYNL 201500Z AUTO ///// 9SM CLR M24/M28 A2993 RMK AO1 PRESRR SLP220
METAR CYNL 201400Z AUTO ///// 9SM CLR M24/M27 A2990 RMK AO1 SLP210
METAR CYNL 201300Z AUTO ///// 9SM CLR M24/M28 A2988 RMK AO1 SLP202
METAR CYNL 201200Z AUTO ///// 9SM CLR M24/M27 A2987 RMK AO1 SLP195
METAR CYNL 201100Z AUTO 04003KT 9SM CLR M25/M29 A2985 RMK AO1 SLP189
METAR CYNL 201000Z AUTO ///// 9SM CLR M26/M29 A2984 RMK AO1 PRESRR SLP181
METAR CYNL 200900Z AUTO 03007KT 9SM CLR M26/M29 A2981 RMK AO1 SLP172
METAR CYNL 200800Z AUTO 02003KT 9SM CLR M27/M30 A2981 RMK AO1 SLP169
METAR CYNL 200700Z AUTO ///// 9SM CLR M26/M30 A2980 RMK AO1 SLP164
METAR CYNL 200600Z AUTO ///// 9SM CLR M24/M28 A2978 RMK AO1 SLP157
METAR CYNL 200500Z AUTO ///// 9SM CLR M23/M26 A2977 RMK AO1 SLP151
METAR CYNL 200400Z AUTO ///// 9SM CLR M23/M26 A2975 RMK AO1 SLP150
METAR CYNL 200300Z AUTO ///// 9SM CLR M22/M25 A2974 RMK AO1 SLP151
METAR CYNL 200200Z AUTO 05003KT 9SM CLR M21/M23 A2973 RMK AO1 SLP149
METAR CYNL 200100Z AUTO 06003KT 9SM CLR M20/M23 A2971 RMK AO1 SLP140
METAR CYNL 200000Z AUTO 04002KT 9SM CLR M18/M21 A2971 RMK AO1 SLP132
METAR CYNL 192300Z AUTO 10004KT 9SM CLR M16/M20 A2969 RMK AO1 SLP124
METAR CYNL 192200Z AUTO ///// 9SM SCT022 M15/M20 A2967 RMK AO1 SLP116
SPECI CYNL 192152Z AUTO 08005KT 9SM SCT022 M15/M20 A2967 RMK AO1 SLP114
SPECI CYNL 192144Z AUTO 08005KT 9SM BKN022 M14/M19 A2967 RMK AO1 SLP114
METAR CYNL 192100Z AUTO 01005KT 9SM CLR M13/M18 A2966 RMK AO1 SLP106
METAR CYNL 192000Z AUTO 02003KT 9SM FEW019 M13/M18 A2966 RMK AO1 SLP108
METAR CYNL 191900Z AUTO 06002KT 9SM CLR M13/M19 A2966 RMK AO1 SLP107
METAR CYNL 191800Z AUTO 00000KT 9SM CLR M14/M19 A2965 RMK AO1 SLP103
METAR CYNL 191700Z AUTO 00000KT 9SM CLR M16/M21 A2964 RMK AO1 SLP105
SPECI CYNL 191633Z AUTO 00000KT 9SM SCT004 M18/M23 A2964 RMK AO1 SLP107
SPECI CYNL 191628Z AUTO 00000KT 9SM SCT004 BKN016 M18/M23 A2964 RMK AO1 SLP107
SPECI CYNL 191625Z AUTO 00000KT 9SM VV005 M18/M23 A2964 RMK AO1 SLP107
SPECI CYNL 191624Z AUTO 00000KT 9SM VV004 M18/M24 A2964 RMK AO1 SLP107
SPECI CYNL 191622Z AUTO 00000KT 9SM SCT004 BKN006 BKN016 M19/M24 A2964 RMK AO1 SLP108
SPECI CYNL 191602Z AUTO 00000KT 9SM SCT005 OVC015 M20/M25 A2964 RMK AO1 SLP110
METAR CYNL 191600Z AUTO 00000KT 9SM VV005 M21/M25 A2964 RMK AO1 SLP110
SPECI CYNL 191555Z AUTO 27002KT 9SM VV005 M21/M25 A2964 RMK AO1 SLP110
SPECI CYNL 191549Z AUTO 00000KT 9SM FEW005 OVC015 M21/M25 A2964 RMK AO1 SLP111
METAR CYNL 191500Z AUTO 00000KT 9SM OVC016 M24/M28 A2964 RMK AO1 SLP114
SPECI CYNL 191431Z AUTO 00000KT 9SM SCT006 BKN017 M24/M28 A2964 RMK AO1 SLP114
SPECI CYNL 191410Z AUTO 00000KT 9SM VV006 M23/M27 A2964 RMK AO1 SLP112
SPECI CYNL 191404Z AUTO 06002KT 9SM FEW003 SCT006 BKN013 M23/M26 A2964 RMK AO1 SLP112
METAR CYNL 191400Z AUTO 00000KT 9SM FEW003 SCT006 BKN007 M23/M26 A2964 RMK AO1 SLP111
SPECI CYNL 191357Z AUTO 00000KT 9SM VV004 M23/M26 A2964 RMK AO1 SLP112
SPECI CYNL 191351Z AUTO 00000KT 9SM VV009 M22/M26 A2964 RMK AO1 SLP112
SPECI CYNL 191344Z AUTO 00000KT 9SM VV010 M22/M25 A2964 RMK AO1 SLP112
SPECI CYNL 191335Z AUTO 00000KT 9SM VV009 M22/M25 A2964 RMK AO1 SLP113
SPECI CYNL 191329Z AUTO 00000KT 9SM VV014 M22/M25 A2964 RMK AO1 SLP112
SPECI CYNL 191327Z AUTO 00000KT 9SM VV015 M21/M25 A2964 RMK AO1 SLP112
SPECI CYNL 191323Z AUTO 00000KT 9SM VV010 M21/M24 A2964 RMK AO1 SLP112
SPECI CYNL 191312Z AUTO 00000KT 9SM VV006 M21/M24 A2965 RMK AO1 SLP112
METAR CYNL 191300Z AUTO 00000KT 9SM FEW005 SCT018 OVC049 M20/M23 A2965 RMK AO1 SLP113
SPECI CYNL 191254Z AUTO 00000KT 9SM FEW005 SCT018 OVC050 M20/M23 A2965 RMK AO1 SLP113
SPECI CYNL 191251Z AUTO 00000KT 9SM FEW006 BKN017 OVC052 M20/M23 A2965 RMK AO1 SLP113
SPECI CYNL 191234Z AUTO 00000KT 9SM VV020 M20/M23 A2965 RMK AO1 SLP114
METAR CYNL 191200Z AUTO 00000KT 9SM FEW013 OVC056 M20/M23 A2966 RMK AO1 SLP117
SPECI CYNL 191143Z AUTO 00000KT 9SM FEW009 OVC056 M20/M23 A2967 RMK AO1 SLP118
METAR CYNL 191100Z AUTO 00000KT 9SM OVC062 M20/M23 A2967 RMK AO1 SLP120
SPECI CYNL 191035Z AUTO 00000KT 9SM SCT013 OVC066 M20/M23 A2967 RMK AO1 PRESFR SLP120
METAR CYNL 191000Z AUTO 18002KT 9SM VV014 M19/M22 A2968 RMK AO1 PRESFR SLP122
SPECI CYNL 190954Z AUTO 18003KT 9SM VV011 M19/M22 A2968 RMK AO1 PRESFR SLP121
SPECI CYNL 190937Z AUTO ///// 9SM FEW006 SCT007 BKN074 M19/M22 A2969 RMK AO1 PRESFR SLP123
METAR CYNL 190900Z AUTO 19005KT 9SM VV007 M19/M22 A2971 RMK AO1 PRESFR SLP131
SPECI CYNL 190853Z AUTO 19005KT 9SM VV007 M19/M22 A2971 RMK AO1 PRESFR SLP132
SPECI CYNL 190845Z AUTO ///// 9SM FEW008 M19/M22 A2972 RMK AO1 PRESFR SLP133
METAR CYNL 190800Z AUTO ///// 9SM CLR M19/M22 A2974 RMK AO1 PRESFR SLP139
METAR CYNL 190700Z AUTO 18005KT 9SM FEW090 M18/M22 A2976 RMK AO1 PRESFR SLP149
METAR CYNL 190600Z AUTO ///// 9SM CLR M18/M22 A2980 RMK AO1 PRESFR SLP162
METAR CYNL 190500Z AUTO ///// 9SM CLR M18/M22 A2983 RMK AO1 PRESFR SLP174
METAR CYNL 190400Z AUTO ///// 9SM CLR M17/M22 A2985 RMK AO1 PRESFR SLP187
METAR CYNL 190300Z AUTO 21010G17KT 9SM CLR M18/M22 A2988 RMK AO1 PRESFR SLP205
METAR CYNL 190200Z AUTO 19012G18KT 9SM CLR M18/M22 A2993 RMK AO1 PRESFR SLP228
METAR CYNL 190100Z AUTO ///// 9SM CLR M18/M23 A2998 RMK AO1 PRESFR SLP246
METAR CYNL 190000Z AUTO ///// 9SM CLR M18/M23 A3002 RMK AO1 PRESFR SLP263
METAR CYNL 182300Z AUTO ///// 9SM CLR M18/M23 A3007 RMK AO1 PRESFR SLP280
METAR CYNL 182200Z AUTO 20012KT 9SM CLR M17/M23 A3011 RMK AO1 PRESFR SLP292
METAR CYNL 182100Z AUTO ///// 9SM CLR M17/M23 A3016 RMK AO1 PRESFR SLP307
METAR CYNL 182000Z AUTO ///// 9SM CLR M18/M23 A3020 RMK AO1 PRESFR SLP323
METAR CYNL 181900Z AUTO ///// 9SM FEW066 M19/M24 A3024 RMK AO1 PRESFR SLP339
METAR CYNL 181800Z AUTO 23007KT 9SM CLR M21/M26 A3027 RMK AO1 PRESFR SLP351
METAR CYNL 181700Z AUTO ///// 9SM CLR M24/M28 A3031 RMK AO1 PRESFR SLP368
METAR CYNL 181600Z AUTO 22003KT 9SM CLR M29/M34 A3034 RMK AO1 PRESFR SLP383
METAR CYNL 181500Z AUTO 22003KT 9SM CLR M34/M39 A3037 RMK AO1 PRESFR SLP397
METAR CYNL 181400Z AUTO 23005KT 9SM CLR M36/M40 A3040 RMK AO1 PRESFR SLP406
METAR CYNL 181300Z AUTO 23005KT 9SM CLR M37/M42 A3043 RMK AO1 PRESFR SLP415
METAR CYNL 181200Z AUTO 23005KT 9SM CLR M36/M40 A3045 RMK AO1 PRESFR SLP420
METAR CYNL 181100Z AUTO 23005KT 9SM CLR M36/M40 A3047 RMK AO1 SLP425
METAR CYNL 181000Z AUTO 25003KT 9SM CLR M36/M41 A3049 RMK AO1 SLP428
METAR CYNL 180900Z AUTO 24006KT 9SM CLR M35/M40 A3050 RMK AO1 SLP429
METAR CYNL 180800Z AUTO 00000KT 9SM CLR M35/M40 A3051 RMK AO1 SLP432
METAR CYNL 180700Z AUTO 24008KT 9SM CLR M34/M39 A3053 RMK AO1 SLP439
METAR CYNL 180600Z AUTO 31003KT 9SM CLR M34/M38 A3055 RMK AO1 SLP445
METAR CYNL 180500Z AUTO 00000KT 9SM CLR M32/M36 A3056 RMK AO1 SLP450
METAR CYNL 180400Z AUTO ///// 9SM CLR M29/M33 A3056 RMK AO1 SLP450
METAR CYNL 180300Z AUTO 34003KT 9SM CLR M28/M31 A3057 RMK AO1 SLP453
METAR CYNL 180200Z AUTO 35004KT 9SM CLR M27/M31 A3057 RMK AO1 SLP455
METAR CYNL 180100Z AUTO 31004KT 9SM CLR M25/M29 A3057 RMK AO1 SLP449
METAR CYNL 180000Z AUTO ///// 9SM CLR M23/M27 A3056 RMK AO1 SLP445
METAR CYNL 172300Z AUTO 03005KT 9SM CLR M20/M25 A3056 RMK AO1 SLP441
METAR CYNL 172200Z AUTO 02006KT 9SM CLR M19/M25 A3056 RMK AO1 SLP441
METAR CYNL 172100Z AUTO 01005KT 9SM CLR M19/M25 A3057 RMK AO1 SLP442
METAR CYNL 172000Z AUTO 00003KT 9SM CLR M20/M25 A3057 RMK AO1 SLP443
METAR CYNL 171900Z AUTO ///// 8SM CLR M21/M26 A3057 RMK AO1 SLP444
METAR CYNL 171800Z AUTO ///// 9SM CLR M24/M29 A3058 RMK AO1 SLP449
METAR CYNL 171700Z AUTO ///// 9SM CLR M26/M30 A3057 RMK AO1 SLP450
METAR CYNL 171600Z AUTO ///// 9SM FEW005 M28/M32 A3056 RMK AO1 SLP449
SPECI CYNL 171554Z AUTO ///// 9SM FEW005 M28/M32 A3056 RMK AO1 SLP449
METAR CYNL 171500Z AUTO ///// 9SM CLR M29/M33 A3055 RMK AO1 SLP445
SPECI CYNL 171401Z AUTO ///// 9SM FEW007 M28/M33 A3053 RMK AO1 SLP439
METAR CYNL 171400Z AUTO ///// 9SM CLR M28/M33 A3053 RMK AO1 SLP439
METAR CYNL 171300Z AUTO ///// 9SM CLR M28/M32 A3052 RMK AO1 SLP434
METAR CYNL 171200Z AUTO 33003KT 9SM CLR M28/M32 A3051 RMK AO1 SLP430
METAR CYNL 171100Z AUTO ///// 9SM CLR M28/M32 A3050 RMK AO1 SLP428
METAR CYNL 171000Z AUTO 34003KT 9SM CLR M28/M32 A3050 RMK AO1 SLP427
METAR CYNL 170900Z AUTO ///// 9SM CLR M27/M31 A3049 RMK AO1 SLP421
METAR CYNL 170800Z AUTO 00003KT 9SM CLR M27/M31 A3048 RMK AO1 SLP417
METAR CYNL 170700Z AUTO ///// 9SM CLR M27/M31 A3047 RMK AO1 SLP415
METAR CYNL 170600Z AUTO ///// 9SM CLR M27/M31 A3046 RMK AO1 SLP410
METAR CYNL 170500Z AUTO 02005KT 9SM CLR M27/M31 A3045 RMK AO1 SLP406
METAR CYNL 170400Z AUTO ///// 9SM CLR M27/M31 A3043 RMK AO1 SLP402
SPECI CYNL 170328Z AUTO 01004KT 9SM SCT016 M27/M31 A3043 RMK AO1 SLP399
METAR CYNL 170300Z AUTO 01004KT 9SM BKN016 M27/M31 A3042 RMK AO1 SLP398
METAR CYNL 170200Z AUTO 01005KT 9SM BKN015 M26/M30 A3041 RMK AO1 SLP394
SPECI CYNL 170159Z AUTO 01004KT 9SM BKN015 M26/M30 A3041 RMK AO1 SLP394
SPECI CYNL 170128Z AUTO 02005KT 9SM SCT013 M26/M30 A3041 RMK AO1 SLP391
METAR CYNL 170100Z AUTO 02006KT 9SM OVC013 M26/M30 A3040 RMK AO1 SLP388
METAR CYNL 170000Z AUTO 02005KT 9SM OVC013 M25/M30 A3039 RMK AO1 SLP383
METAR CYNL 162300Z AUTO 02007KT 9SM OVC013 M25/M29 A3038 RMK AO1 SLP379
SPECI CYNL 162238Z AUTO 03008KT 9SM BKN013 M25/M29 A3037 RMK AO1 SLP375
SPECI CYNL 162221Z AUTO 03008KT 9SM SCT011 M24/M28 A3036 RMK AO1 SLP371
METAR CYNL 162200Z AUTO 03007KT 9SM BKN010 OVC012 M24/M29 A3036 RMK AO1 SLP372
SPECI CYNL 162151Z AUTO 04007KT 9SM BKN010 M24/M28 A3036 RMK AO1 SLP371
SPECI CYNL 162150Z AUTO 03007KT 9SM BKN009 M24/M28 A3036 RMK AO1 SLP371
SPECI CYNL 162141Z AUTO ///// 9SM FEW008 BKN012 M24/M28 A3035 RMK AO1 SLP368
SPECI CYNL 162140Z AUTO ///// 9SM FEW008 SCT012 M24/M28 A3035 RMK AO1 SLP367
SPECI CYNL 162126Z AUTO ///// 9SM SCT012 M23/M28 A3034 RMK AO1 SLP365
METAR CYNL 162100Z AUTO ///// 9SM OVC011 M24/M28 A3034 RMK AO1 SLP364
METAR CYNL 162000Z AUTO 02007KT 9SM OVC010 M25/M29 A3033 RMK AO1 SLP362
METAR CYNL 161900Z AUTO ///// 9SM OVC012 M24/M28 A3032 RMK AO1 SLP357
SPECI CYNL 161846Z AUTO ///// 9SM SCT009 OVC012 M24/M28 A3033 RMK AO1 SLP359
METAR CYNL 161800Z AUTO 00005KT 9SM OVC009 M25/M29 A3032 RMK AO1 SLP356
METAR CYNL 161700Z AUTO 02006KT 9SM OVC009 M26/M30 A3031 RMK AO1 SLP355
SPECI CYNL 161659Z AUTO 02006KT 9SM OVC009 M26/M30 A3031 RMK AO1 SLP354
METAR CYNL 161600Z AUTO 01006KT 9SM OVC011 M26/M30 A3029 RMK AO1 SLP349
METAR CYNL 161500Z AUTO 01005KT 9SM OVC011 M26/M29 A3028 RMK AO1 SLP344
METAR CYNL 161400Z AUTO ///// 9SM OVC011 M25/M29 A3026 RMK AO1 SLP336
METAR CYNL 161300Z AUTO 01003KT 9SM OVC011 M25/M29 A3025 RMK AO1 SLP331
METAR CYNL 161200Z AUTO ///// 9SM OVC011 M25/M29 A3024 RMK AO1 SLP325
METAR CYNL 161100Z AUTO 04004KT 9SM OVC011 M25/M28 A3022 RMK AO1 SLP318
METAR CYNL 161000Z AUTO ///// 9SM OVC012 M25/M28 A3021 RMK AO1 SLP313
METAR CYNL 160900Z AUTO 02005KT 9SM OVC012 M24/M28 A3020 RMK AO1 SLP309
METAR CYNL 160800Z AUTO 00000KT 9SM OVC011 M24/M27 A3020 RMK AO1 SLP305
SPECI CYNL 160741Z AUTO 00000KT 9SM FEW009 OVC010 M24/M27 A3019 RMK AO1 SLP304
SPECI CYNL 160733Z AUTO ///// 9SM OVC010 M24/M27 A3019 RMK AO1 SLP303
METAR CYNL 160700Z AUTO ///// 9SM OVC009 M24/M27 A3019 RMK AO1 SLP301
METAR CYNL 160600Z AUTO ///// 9SM OVC009 M23/M26 A3018 RMK AO1 PRESRR SLP299
SPECI CYNL 160528Z AUTO 34006KT 9SM OVC009 M23/M26 A3017 RMK AO1 SLP299
METAR CYNL 160500Z AUTO 01005KT 9SM OVC013 M23/M26 A3016 RMK AO1 SLP294
SPECI CYNL 160409Z AUTO 01006KT 9SM OVC014 M23/M26 A3016 RMK AO1 SLP297
METAR CYNL 160400Z AUTO 00005KT 9SM OVC015 M23/M26 A3016 RMK AO1 SLP297
METAR CYNL 160300Z AUTO 01004KT 9SM OVC016 M22/M26 A3015 RMK AO1 SLP293
METAR CYNL 160200Z AUTO 34002KT 9SM OVC015 M21/M25 A3013 RMK AO1 SLP290
SPECI CYNL 160141Z AUTO 34005KT 9SM OVC015 M21/M25 A3013 RMK AO1 SLP289
METAR CYNL 160100Z AUTO ///// 9SM OVC012 M20/M24 A3013 RMK AO1 SLP287
SPECI CYNL 160017Z AUTO ///// 9SM BKN012 OVC020 M20/M23 A3012 RMK AO1 SLP282
METAR CYNL 160000Z AUTO ///// 9SM OVC020 M20/M23 A3011 RMK AO1 SLP279
METAR CYNL 152300Z AUTO ///// 9SM SCT015 OVC023 M19/M23 A3010 RMK AO1 SLP275
SPECI CYNL 152256Z AUTO 01005KT 9SM SCT015 OVC024 M18/M22 A3010 RMK AO1 SLP274
METAR CYNL 152200Z AUTO 02004KT 9SM OVC028 M18/M22 A3009 RMK AO1 SLP270
METAR CYNL 152100Z AUTO 03004KT 9SM FEW015 OVC029 M18/M22 A3008 RMK AO1 SLP264
SPECI CYNL 152018Z AUTO 34006KT 8SM FEW014 OVC029 M17/M21 A3007 RMK AO1 SLP260
METAR CYNL 152000Z AUTO 34003KT 9SM BKN031 M17/M21 A3007 RMK AO1 SLP259
METAR CYNL 151900Z AUTO 28004KT 9SM CLR M18/M22 A3006 RMK AO1 SLP260
SPECI CYNL 151820Z AUTO 29005KT 9SM FEW004 M20/M23 A3006 RMK AO1 PRESRR SLP258
METAR CYNL 151800Z AUTO 29004KT 9SM CLR M20/M23 A3006 RMK AO1 PRESRR SLP257
METAR CYNL 151700Z AUTO 29004KT 9SM SCT006 M22/M25 A3004 RMK AO1 SLP252
SPECI CYNL 151658Z AUTO 28004KT 9SM SCT006 M22/M26 A3004 RMK AO1 SLP251
METAR CYNL 151600Z AUTO ///// 9SM OVC005 M23/M26 A3002 RMK AO1 SLP248
SPECI CYNL 151553Z AUTO ///// 9SM VV005 M23/M27 A3002 RMK AO1 SLP248
SPECI CYNL 151550Z AUTO ///// 9SM VV004 M23/M27 A3002 RMK AO1 SLP248
SPECI CYNL 151542Z AUTO 28004KT 9SM VV005 M23/M27 A3002 RMK AO1 SLP248
SPECI CYNL 151538Z AUTO 28004KT 9SM VV004 M23/M27 A3002 RMK AO1 SLP248
SPECI CYNL 151514Z AUTO 29003KT 9SM FEW004 M24/M27 A3001 RMK AO1 SLP245
METAR CYNL 151500Z AUTO 25002KT 9SM CLR M25/M28 A3001 RMK AO1 SLP244
METAR CYNL 151400Z AUTO 29005KT 9SM CLR M24/M28 A3001 RMK AO1 SLP244
METAR CYNL 151300Z AUTO 29005KT 9SM CLR M24/M28 A3000 RMK AO1 SLP241
METAR CYNL 151200Z AUTO 28005KT 9SM CLR M24/M28 A2999 RMK AO1 SLP237
METAR CYNL 151100Z AUTO ///// 9SM CLR M23/M27 A2999 RMK AO1 SLP231
METAR CYNL 151000Z AUTO 26002KT 9SM CLR M23/M26 A2999 RMK AO1 SLP230
METAR CYNL 150900Z AUTO 27005KT 9SM CLR M23/M26 A2998 RMK AO1 SLP226
METAR CYNL 150800Z AUTO 00000KT 9SM CLR M24/M27 A2999 RMK AO1 SLP228
METAR CYNL 150700Z AUTO ///// 9SM CLR M22/M25 A2999 RMK AO1 SLP226
METAR CYNL 150600Z AUTO 23003KT 9SM CLR M21/M24 A2999 RMK AO1 SLP226
METAR CYNL 150500Z AUTO ///// 9SM CLR M20/M23 A2999 RMK AO1 SLP228
METAR CYNL 150400Z AUTO ///// 9SM CLR M20/M23 A2999 RMK AO1 SLP230
METAR CYNL 150300Z AUTO 28003KT 9SM CLR M20/M23 A2999 RMK AO1 SLP235
METAR CYNL 150200Z AUTO 27005KT 9SM CLR M19/M22 A2998 RMK AO1 SLP238
METAR CYNL 150100Z AUTO 23004KT 9SM CLR M18/M22 A2998 RMK AO1 SLP234
METAR CYNL 150000Z AUTO 22004KT 9SM CLR M17/M21 A2999 RMK AO1 SLP236
METAR CYNL 142300Z AUTO 26003KT 9SM CLR M15/M20 A2999 RMK AO1 SLP235
METAR CYNL 142200Z AUTO 26004KT 9SM CLR M13/M18 A2999 RMK AO1 SLP233
METAR CYNL 142100Z AUTO 26006KT 9SM CLR M14/M19 A2999 RMK AO1 SLP234
METAR CYNL 142000Z AUTO 25005KT 9SM CLR M15/M18 A3000 RMK AO1 SLP237
METAR CYNL 141900Z AUTO 25005KT 9SM CLR M15/M19 A3000 RMK AO1 SLP236
METAR CYNL 141800Z AUTO ///// 9SM CLR M17/M20 A3001 RMK AO1 SLP240
METAR CYNL 141700Z AUTO 00000KT 9SM CLR M20/M23 A3000 RMK AO1 SLP240
SPECI CYNL 141612Z AUTO 26003KT 9SM SCT003 M23/M26 A2998 RMK AO1 SLP237
SPECI CYNL 141608Z AUTO 26003KT 9SM BKN003 M23/M26 A2998 RMK AO1 SLP237
METAR CYNL 141600Z AUTO 26002KT 9SM VV002 M24/M27 A2998 RMK AO1 SLP238
SPECI CYNL 141546Z AUTO 24002KT 9SM VV003 M25/M29 A2997 RMK AO1 SLP239
SPECI CYNL 141506Z AUTO ///// 9SM OVC002 M27/M31 A2996 RMK AO1 SLP240
METAR CYNL 141500Z AUTO ///// 9SM OVC003 M27/M31 A2996 RMK AO1 SLP240
METAR CYNL 141400Z AUTO ///// 9SM OVC004 M26/M30 A2996 RMK AO1 SLP234
SPECI CYNL 141338Z AUTO 25002KT 9SM OVC003 M26/M30 A2995 RMK AO1 SLP233
SPECI CYNL 141320Z AUTO 27002KT 5SM OVC002 M27/M31 A2995 RMK AO1 SLP233
SPECI CYNL 141319Z AUTO 27002KT 2SM OVC002 M27/M31 A2995 RMK AO1 SLP232
SPECI CYNL 141318Z AUTO 27002KT 1SM OVC002 M27/M31 A2995 RMK AO1 SLP232
SPECI CYNL 141308Z AUTO 00000KT 1/4SM OVC002 M27/M31 A2995 RMK AO1 SLP232
SPECI CYNL 141307Z AUTO 00000KT 1/8SM OVC002 M27/M31 A2995 RMK AO1 SLP232
SPECI CYNL 141301Z AUTO 00000KT 1/8SM VV003 M27/M31 A2995 RMK AO1 SLP232
METAR CYNL 141300Z AUTO 00000KT 1/4SM VV003 M27/M31 A2995 RMK AO1 SLP232
SPECI CYNL 141257Z AUTO 00000KT 1/4SM VV003 M27/M31 A2995 RMK AO1 SLP229
SPECI CYNL 141256Z AUTO 00000KT 1/8SM OVC002 M27/M31 A2995 RMK AO1 SLP229
SPECI CYNL 141235Z AUTO 23002KT 1/2SM OVC002 M27/M31 A2994 RMK AO1 SLP227
SPECI CYNL 141233Z AUTO 00000KT 1 1/4SM OVC002 M27/M31 A2994 RMK AO1 SLP227
SPECI CYNL 141232Z AUTO 00000KT 1 3/4SM OVC002 M27/M31 A2994 RMK AO1 SLP227
SPECI CYNL 141231Z AUTO 00000KT 2SM OVC002 M27/M31 A2994 RMK AO1 SLP227
SPECI CYNL 141226Z AUTO 21003KT 1SM VV002 M27/M31 A2994 RMK AO1 SLP226
SPECI CYNL 141201Z AUTO 00000KT 3/8SM VV002 M27/M30 A2994 RMK AO1 SLP225
METAR CYNL 141200Z AUTO 26002KT 3/8SM VV003 M27/M30 A2994 RMK AO1 SLP225
SPECI CYNL 141159Z AUTO 26002KT 1/4SM VV003 M27/M30 A2994 RMK AO1 SLP223
SPECI CYNL 141151Z AUTO 25002KT 1/2SM OVC002 M27/M30 A2994 RMK AO1 SLP221
SPECI CYNL 141150Z AUTO 25002KT 3/4SM OVC002 M27/M30 A2993 RMK AO1 SLP220
SPECI CYNL 141148Z AUTO 00000KT 1 3/4SM OVC002 M27/M30 A2993 RMK AO1 SLP220
SPECI CYNL 141126Z AUTO 00000KT 9SM OVC002 M26/M30 A2993 RMK AO1 SLP218
SPECI CYNL 141116Z AUTO 00000KT 9SM OVC003 M26/M30 A2993 RMK AO1 SLP218
SPECI CYNL 141104Z AUTO 27003KT 9SM OVC002 M26/M30 A2992 RMK AO1 SLP216
METAR CYNL 141100Z AUTO 26002KT 9SM OVC003 M27/M30 A2992 RMK AO1 SLP216
SPECI CYNL 141008Z AUTO 26002KT 9SM OVC003 M27/M30 A2991 RMK AO1 SLP209
METAR CYNL 141000Z AUTO ///// 9SM OVC002 M27/M31 A2991 RMK AO1 SLP209
SPECI CYNL 140947Z AUTO 26002KT 4SM OVC002 M27/M30 A2990 RMK AO1 SLP205
SPECI CYNL 140945Z AUTO 25002KT 6SM OVC003 M27/M30 A2990 RMK AO1 SLP204
SPECI CYNL 140923Z AUTO ///// 9SM OVC002 M27/M31 A2990 RMK AO1 SLP203
SPECI CYNL 140921Z AUTO ///// 9SM VV003 M27/M31 A2990 RMK AO1 SLP203
METAR CYNL 140900Z AUTO ///// 9SM VV001 M27/M31 A2989 RMK AO1 SLP200
METAR CYNL 140800Z AUTO 29002KT 9SM SCT004 M25/M29 A2988 RMK AO1 SLP194
SPECI CYNL 140757Z AUTO 00000KT 9SM SCT004 M25/M29 A2988 RMK AO1 SLP194
METAR CYNL 140700Z AUTO 30004KT 9SM OVC003 M24/M28 A2987 RMK AO1 SLP189
SPECI CYNL 140645Z AUTO ///// 9SM OVC003 M24/M28 A2986 RMK AO1 SLP188
SPECI CYNL 140634Z AUTO ///// 3SM OVC002 M24/M28 A2986 RMK AO1 SLP186
SPECI CYNL 140633Z AUTO ///// 2SM OVC002 M24/M28 A2985 RMK AO1 SLP186
SPECI CYNL 140629Z AUTO ///// 1 3/4SM OVC002 M24/M28 A2985 RMK AO1 SLP186
SPECI CYNL 140628Z AUTO ///// 2SM OVC002 M24/M28 A2985 RMK AO1 SLP186
SPECI CYNL 140626Z AUTO ///// 3SM OVC002 M24/M28 A2985 RMK AO1 SLP185
SPECI CYNL 140623Z AUTO 29003KT 2SM OVC002 M24/M28 A2985 RMK AO1 SLP185
SPECI CYNL 140621Z AUTO ///// 1 3/4SM OVC002 M24/M28 A2985 RMK AO1 SLP184
SPECI CYNL 140618Z AUTO ///// 2SM OVC002 M24/M28 A2985 RMK AO1 SLP184
SPECI CYNL 140617Z AUTO ///// 1 1/2SM OVC002 M24/M28 A2985 RMK AO1 SLP184
SPECI CYNL 140614Z AUTO 29003KT 1 1/4SM OVC002 M24/M28 A2985 RMK AO1 SLP184
SPECI CYNL 140612Z AUTO 29002KT 1 1/2SM OVC002 M24/M28 A2985 RMK AO1 SLP184
SPECI CYNL 140603Z AUTO ///// 1SM OVC002 M24/M28 A2985 RMK AO1 SLP184
METAR CYNL 140600Z AUTO ///// 3/4SM OVC002 M24/M28 A2985 RMK AO1 SLP184
SPECI CYNL 140559Z AUTO ///// 1SM OVC002 M24/M28 A2985 RMK AO1 SLP183
SPECI CYNL 140558Z AUTO 30003KT 1 1/2SM OVC002 M24/M28 A2985 RMK AO1 SLP183
SPECI CYNL 140556Z AUTO 30003KT 1SM OVC002 M24/M28 A2985 RMK AO1 SLP182
SPECI CYNL 140555Z AUTO 29002KT 3/4SM OVC002 M24/M28 A2985 RMK AO1 SLP182
SPECI CYNL 140552Z AUTO ///// 1 1/4SM OVC002 M24/M28 A2985 RMK AO1 SLP182
SPECI CYNL 140551Z AUTO ///// 3/4SM OVC002 M24/M28 A2985 RMK AO1 SLP182
SPECI CYNL 140550Z AUTO ///// 5/8SM OVC002 M24/M28 A2985 RMK AO1 SLP182
SPECI CYNL 140545Z AUTO ///// 1 1/4SM OVC002 M24/M28 A2984 RMK AO1 SLP181
SPECI CYNL 140544Z AUTO ///// 1 1/2SM OVC002 M24/M28 A2984 RMK AO1 SLP181
SPECI CYNL 140542Z AUTO ///// 1 1/4SM OVC002 M24/M28 A2984 RMK AO1 SLP182
SPECI CYNL 140539Z AUTO ///// 2 1/2SM BKN002 OVC003 M24/M28 A2984 RMK AO1 SLP181
SPECI CYNL 140538Z AUTO ///// 4SM BKN002 OVC003 M24/M28 A2984 RMK AO1 SLP181
SPECI CYNL 140535Z AUTO ///// 2 1/2SM BKN002 OVC003 M24/M28 A2984 RMK AO1 SLP181
SPECI CYNL 140534Z AUTO ///// 3SM BKN002 OVC003 M24/M28 A2984 RMK AO1 SLP181
SPECI CYNL 140533Z AUTO ///// 2SM BKN002 OVC003 M24/M28 A2984 RMK AO1 SLP181
SPECI CYNL 140524Z AUTO ///// 1 1/2SM OVC002 M24/M28 A2984 RMK AO1 SLP181
SPECI CYNL 140523Z AUTO ///// 1 1/2SM SCT002 OVC003 M24/M28 A2984 RMK AO1 SLP181
SPECI CYNL 140522Z AUTO ///// 1SM SCT002 OVC003 M24/M28 A2984 RMK AO1 SLP181
SPECI CYNL 140507Z AUTO 31002KT 1/4SM VV003 M24/M27 A2984 RMK AO1 SLP180
SPECI CYNL 140505Z AUTO 32002KT 1/8SM VV003 M24/M27 A2984 RMK AO1 SLP180
SPECI CYNL 140503Z AUTO 32002KT 1/4SM VV003 M24/M27 A2984 RMK AO1 SLP180
METAR CYNL 140500Z AUTO 00000KT 1/8SM VV003 M24/M27 A2984 RMK AO1 SLP180
SPECI CYNL 140458Z AUTO 00000KT 1/8SM OVC002 M24/M27 A2984 RMK AO1 SLP186
SPECI CYNL 140448Z AUTO 00000KT 5/8SM OVC002 M24/M27 A2984 RMK AO1 SLP185
SPECI CYNL 140446Z AUTO 00000KT 1 1/4SM OVC002 M24/M27 A2984 RMK AO1 SLP185
SPECI CYNL 140445Z AUTO 00000KT 1 3/4SM OVC002 M24/M27 A2983 RMK AO1 SLP184
SPECI CYNL 140444Z AUTO 00000KT 2 1/2SM OVC002 M24/M27 A2983 RMK AO1 SLP184
SPECI CYNL 140441Z AUTO 00000KT 1 3/4SM OVC002 M24/M27 A2983 RMK AO1 SLP184
SPECI CYNL 140433Z AUTO 00000KT 9SM BKN002 OVC004 M24/M28 A2983 RMK AO1 SLP184
SPECI CYNL 140407Z AUTO ///// 9SM BKN004 OVC006 M25/M28 A2983 RMK AO1 SLP184
METAR CYNL 140400Z AUTO ///// 9SM OVC006 M25/M29 A2983 RMK AO1 SLP185
SPECI CYNL 140340Z AUTO ///// 9SM BKN008 M25/M29 A2983 RMK AO1 SLP187
SPECI CYNL 140339Z AUTO ///// 9SM SCT008 BKN010 M25/M29 A2983 RMK AO1 SLP187
SPECI CYNL 140328Z AUTO ///// 9SM FEW009 M25/M29 A2983 RMK AO1 SLP186
METAR CYNL 140300Z AUTO 00000KT 9SM CLR M24/M27 A2982 RMK AO1 SLP183
METAR CYNL 140200Z AUTO 00000KT 9SM CLR M24/M28 A2981 RMK AO1 SLP183
METAR CYNL 140100Z AUTO ///// 9SM CLR M22/M25 A2980 RMK AO1 SLP175
SPECI CYNL 140028Z AUTO ///// 9SM SCT008 M20/M23 A2980 RMK AO1 SLP173
SPECI CYNL 140017Z AUTO 31003KT 9SM FEW006 SCT008 OVC016 M19/M23 A2980 RMK AO1 SLP171
SPECI CYNL 140014Z AUTO ///// 5SM VV007 M19/M23 A2980 RMK AO1 SLP170
SPECI CYNL 140007Z AUTO ///// 9SM FEW009 BKN016 M19/M22 A2980 RMK AO1 SLP169
METAR CYNL 140000Z AUTO 32004KT 9SM BKN016 M19/M22 A2979 RMK AO1 SLP168
SPECI CYNL 132322Z AUTO 00000KT 9SM BKN016 M16/M20 A2979 RMK AO1 SLP164
METAR CYNL 132300Z AUTO 34002KT 9SM CLR M17/M21 A2978 RMK AO1 SLP163
METAR CYNL 132200Z AUTO 04003KT 9SM CLR M15/M20 A2978 RMK AO1 SLP161
METAR CYNL 132100Z AUTO 04005KT 9SM CLR M15/M20 A2978 RMK AO1 SLP163
METAR CYNL 132000Z AUTO 02004KT 9SM CLR M15/M20 A2979 RMK AO1 SLP164
METAR CYNL 131900Z AUTO 34005KT 9SM CLR M16/M21 A2980 RMK AO1 SLP167
METAR CYNL 131800Z AUTO 00000KT 9SM CLR M16/M22 A2982 RMK AO1 SLP171
METAR CYNL 131700Z AUTO 00000KT 9SM FEW009 M20/M24 A2983 RMK AO1 SLP180
SPECI CYNL 131635Z AUTO 00000KT 9SM FEW007 SCT009 M22/M26 A2983 RMK AO1 SLP183
SPECI CYNL 131630Z AUTO 00000KT 6SM VV009 M22/M26 A2983 RMK AO1 SLP183
SPECI CYNL 131626Z AUTO 00000KT 7SM VV011 M22/M26 A2983 RMK AO1 SLP183
METAR CYNL 131600Z AUTO 00000KT 9SM CLR M22/M26 A2983 RMK AO1 SLP184
METAR CYNL 131500Z AUTO 00000KT 9SM FEW007 M25/M28 A2984 RMK AO1 SLP190
SPECI CYNL 131435Z AUTO 00000KT 9SM SCT008 M25/M28 A2985 RMK AO1 SLP192
SPECI CYNL 131428Z AUTO 00000KT 9SM SCT008 BKN013 M24/M28 A2985 RMK AO1 SLP191
SPECI CYNL 131418Z AUTO 00000KT 6SM VV010 M24/M28 A2985 RMK AO1 SLP191
METAR CYNL 131400Z AUTO 00000KT 7SM VV008 M24/M28 A2985 RMK AO1 SLP192
SPECI CYNL 131357Z AUTO 00000KT 5SM VV009 M24/M27 A2985 RMK AO1 SLP192
SPECI CYNL 131350Z AUTO 04002KT 5SM VV014 M24/M27 A2986 RMK AO1 SLP192
SPECI CYNL 131345Z AUTO 00000KT 4SM VV015 M24/M27 A2986 RMK AO1 SLP192
SPECI CYNL 131332Z AUTO 00000KT 7SM VV010 M24/M27 A2986 RMK AO1 SLP193
SPECI CYNL 131328Z AUTO 00000KT 7SM VV007 M24/M27 A2986 RMK AO1 SLP193
SPECI CYNL 131311Z AUTO ///// 9SM FEW007 SCT013 M24/M27 A2986 RMK AO1 SLP193
SPECI CYNL 131310Z AUTO 00000KT 9SM FEW007 SCT013 BKN016 M24/M27 A2986 RMK AO1 SLP193
SPECI CYNL 131304Z AUTO 00000KT 8SM SCT008 BKN013 M24/M27 A2986 RMK AO1 SLP195
SPECI CYNL 131302Z AUTO 00000KT 6SM VV009 M24/M27 A2986 RMK AO1 SLP195
METAR CYNL 131300Z AUTO 00000KT 5SM VV011 M24/M27 A2986 RMK AO1 SLP195
SPECI CYNL 131251Z AUTO ///// 5SM VV014 M24/M27 A2987 RMK AO1 SLP195
SPECI CYNL 131246Z AUTO 33002KT 6SM VV015 M24/M28 A2987 RMK AO1 SLP195
SPECI CYNL 131227Z AUTO 00000KT 4SM VV010 M24/M28 A2988 RMK AO1 SLP199
SPECI CYNL 131216Z AUTO 00000KT 4SM VV009 M24/M28 A2988 RMK AO1 SLP199
SPECI CYNL 131212Z AUTO 00000KT 4SM VV010 M24/M28 A2988 RMK AO1 SLP200
SPECI CYNL 131204Z AUTO 00000KT 5SM VV009 M24/M28 A2988 RMK AO1 SLP200
SPECI CYNL 131201Z AUTO 00000KT 7SM VV013 M25/M28 A2988 RMK AO1 SLP200
METAR CYNL 131200Z AUTO 00000KT 8SM VV015 M25/M28 A2988 RMK AO1 SLP200
SPECI CYNL 131122Z AUTO 00000KT 5SM VV015 M25/M29 A2989 RMK AO1 SLP203
SPECI CYNL 131118Z AUTO 00000KT 8SM VV011 M25/M29 A2989 RMK AO1 SLP203
SPECI CYNL 131112Z AUTO 00000KT 8SM VV009 M26/M29 A2989 RMK AO1 SLP203
SPECI CYNL 131104Z AUTO 00000KT 3SM VV014 M26/M30 A2989 RMK AO1 SLP204
METAR CYNL 131100Z AUTO 00000KT 3SM VV017 M26/M30 A2989 RMK AO1 SLP204
SPECI CYNL 131051Z AUTO 00000KT 4SM VV024 M26/M30 A2989 RMK AO1 PRESFR SLP204
SPECI CYNL 131046Z AUTO 00000KT 6SM VV025 M27/M30 A2989 RMK AO1 PRESFR SLP204
METAR CYNL 131000Z AUTO 00000KT 9SM CLR M28/M31 A2990 RMK AO1 PRESFR SLP210
METAR CYNL 130900Z AUTO 00000KT 9SM CLR M27/M31 A2993 RMK AO1 PRESFR SLP216
METAR CYNL 130800Z AUTO 00000KT 9SM CLR M25/M29 A2995 RMK AO1 SLP218
METAR CYNL 130700Z AUTO 00000KT 9SM FEW007 SCT012 M23/M27 A2996 RMK AO1 SLP221
SPECI CYNL 130651Z AUTO ///// 6SM FEW007 SCT011 M23/M27 A2996 RMK AO1 SLP225
SPECI CYNL 130649Z AUTO ///// 6SM VV009 M23/M27 A2996 RMK AO1 SLP225
SPECI CYNL 130643Z AUTO 00000KT 5SM VV010 M23/M27 A2996 RMK AO1 SLP225
SPECI CYNL 130641Z AUTO 00000KT 5SM VV009 M23/M27 A2996 RMK AO1 SLP226
SPECI CYNL 130623Z AUTO 00000KT 8SM FEW006 SCT011 M23/M26 A2997 RMK AO1 SLP227
SPECI CYNL 130621Z AUTO 00000KT 6SM VV009 M23/M26 A2997 RMK AO1 SLP227
SPECI CYNL 130618Z AUTO 00000KT 6SM VV012 M23/M26 A2997 RMK AO1 SLP228
METAR CYNL 130600Z AUTO 00000KT 9SM FEW007 M23/M26 A2998 RMK AO1 SLP230
SPECI CYNL 130517Z AUTO 00000KT 9SM SCT008 M22/M26 A2998 RMK AO1 PRESFR SLP233
SPECI CYNL 130514Z AUTO 00000KT 9SM VV009 M22/M26 A2998 RMK AO1 PRESFR SLP233
SPECI CYNL 130512Z AUTO 00000KT 9SM VV010 M22/M26 A2998 RMK AO1 PRESFR SLP233
SPECI CYNL 130503Z AUTO 00000KT 8SM FEW008 M22/M26 A2999 RMK AO1 PRESFR SLP234
METAR CYNL 130500Z AUTO 00000KT 9SM CLR M22/M26 A2999 RMK AO1 PRESFR SLP235
SPECI CYNL 130429Z AUTO 00000KT 6SM FEW006 SCT008 M22/M25 A3000 RMK AO1 PRESFR SLP241
SPECI CYNL 130428Z AUTO 00000KT 5SM FEW006 SCT008 BKN012 M22/M25 A3000 RMK AO1 PRESFR SLP241
SPECI CYNL 130420Z AUTO 00000KT 3SM VV009 M22/M25 A3000 RMK AO1 PRESFR SLP241
SPECI CYNL 130417Z AUTO 00000KT 3SM VV011 M22/M25 A3000 RMK AO1 PRESFR SLP241
SPECI CYNL 130401Z AUTO ///// 6SM FEW007 M22/M25 A3001 RMK AO1 PRESFR SLP244
METAR CYNL 130400Z AUTO ///// 6SM VV007 M22/M25 A3001 RMK AO1 PRESFR SLP244
SPECI CYNL 130359Z AUTO ///// 6SM VV007 M22/M25 A3001 RMK AO1 PRESFR SLP246
SPECI CYNL 130354Z AUTO ///// 8SM FEW008 M22/M25 A3001 RMK AO1 PRESFR SLP248
METAR CYNL 130300Z AUTO 00000KT 9SM CLR M22/M25 A3003 RMK AO1 PRESFR SLP255
SPECI CYNL 130212Z AUTO 07002KT 7SM SCT008 M21/M25 A3005 RMK AO1 SLP260
SPECI CYNL 130210Z AUTO ///// 8SM SCT007 BKN015 M21/M25 A3005 RMK AO1 SLP260
SPECI CYNL 130205Z AUTO ///// 6SM SCT008 BKN012 BKN015 M21/M25 A3005 RMK AO1 SLP262
SPECI CYNL 130201Z AUTO ///// 4SM VV009 M21/M24 A3005 RMK AO1 SLP262
METAR CYNL 130200Z AUTO ///// 4SM VV010 M21/M24 A3006 RMK AO1 SLP262
SPECI CYNL 130151Z AUTO 07003KT 6SM VV010 M21/M24 A3006 RMK AO1 SLP263
SPECI CYNL 130146Z AUTO 07003KT 4SM VV009 M21/M24 A3006 RMK AO1 SLP264
SPECI CYNL 130141Z AUTO 07002KT 9SM VV014 M21/M24 A3006 RMK AO1 SLP264
SPECI CYNL 130121Z AUTO 07003KT 9SM FEW005 SCT014 M21/M24 A3006 RMK AO1 SLP265
SPECI CYNL 130118Z AUTO 07003KT 9SM FEW006 SCT008 BKN015 M21/M24 A3007 RMK AO1 SLP266
SPECI CYNL 130115Z AUTO 07003KT 7SM FEW006 SCT008 BKN013 M21/M24 A3007 RMK AO1 SLP266
SPECI CYNL 130112Z AUTO 07003KT 5SM VV009 M21/M24 A3007 RMK AO1 SLP266
SPECI CYNL 130108Z AUTO 07003KT 4SM VV014 M20/M24 A3007 RMK AO1 SLP267
SPECI CYNL 130104Z AUTO 08003KT 5SM VV015 M20/M24 A3007 RMK AO1 SLP267
METAR CYNL 130100Z AUTO 06003KT 5SM VV011 M20/M24 A3007 RMK AO1 SLP268
SPECI CYNL 130059Z AUTO 06003KT 5SM VV010 M20/M24 A3007 RMK AO1 SLP268
SPECI CYNL 130047Z AUTO 08003KT 6SM VV007 M20/M23 A3007 RMK AO1 SLP269
SPECI CYNL 130038Z AUTO 07003KT 7SM FEW007 M20/M23 A3007 RMK AO1 SLP268
METAR CYNL 130000Z AUTO 10002KT 9SM CLR M20/M23 A3008 RMK AO1 SLP271
SPECI CYNL 122312Z AUTO 08003KT 8SM SCT007 M19/M22 A3009 RMK AO1 SLP272
SPECI CYNL 122301Z AUTO 08003KT 6SM VV007 M18/M22 A3008 RMK AO1 SLP271
METAR CYNL 122300Z AUTO 08004KT 7SM FEW007 M18/M22 A3008 RMK AO1 SLP271
SPECI CYNL 122257Z AUTO 08004KT 9SM FEW007 M18/M22 A3008 RMK AO1 SLP271
METAR CYNL 122200Z AUTO ///// 8SM CLR M17/M21 A3010 RMK AO1 SLP274
METAR CYNL 122100Z AUTO 00000KT 9SM CLR M15/M20 A3012 RMK AO1 PRESFR SLP278
METAR CYNL 122000Z AUTO 00000KT 9SM CLR M16/M21 A3014 RMK AO1 PRESFR SLP289
SPECI CYNL 121931Z AUTO ///// 9SM FEW007 SCT012 M18/M22 A3016 RMK AO1 SLP295
SPECI CYNL 121928Z AUTO ///// 9SM SCT008 BKN017 M18/M22 A3016 RMK AO1 SLP296
SPECI CYNL 121924Z AUTO ///// 8SM SCT008 BKN014 BKN022 M18/M22 A3016 RMK AO1 SLP297
SPECI CYNL 121916Z AUTO ///// 6SM VV009 M19/M23 A3017 RMK AO1 SLP299
SPECI CYNL 121910Z AUTO ///// 5SM VV014 M19/M23 A3017 RMK AO1 SLP299
METAR CYNL 121900Z AUTO ///// 9SM VV019 M19/M23 A3017 RMK AO1 SLP301
SPECI CYNL 121857Z AUTO 16004KT 9SM VV015 M19/M23 A3017 RMK AO1 SLP300
SPECI CYNL 121852Z AUTO ///// 9SM VV014 M19/M23 A3017 RMK AO1 SLP300
SPECI CYNL 121819Z AUTO 18003KT 9SM SCT007 M20/M23 A3019 RMK AO1 SLP306
SPECI CYNL 121817Z AUTO ///// 9SM SCT007 BKN011 M20/M23 A3019 RMK AO1 SLP306
SPECI CYNL 121811Z AUTO ///// 9SM VV009 M20/M23 A3019 RMK AO1 SLP307
SPECI CYNL 121805Z AUTO ///// 9SM VV010 M20/M24 A3019 RMK AO1 SLP308
SPECI CYNL 121801Z AUTO ///// 9SM VV009 M20/M24 A3019 RMK AO1 SLP308
METAR CYNL 121800Z AUTO ///// 9SM SCT008 BKN012 M20/M24 A3019 RMK AO1 SLP308
SPECI CYNL 121750Z AUTO 15002KT 9SM SCT007 M21/M24 A3019 RMK AO1 SLP309
SPECI CYNL 121749Z AUTO 15002KT 9SM VV007 M21/M24 A3019 RMK AO1 SLP309
SPECI CYNL 121740Z AUTO 15003KT 9SM FEW007 M21/M24 A3019 RMK AO1 SLP308
SPECI CYNL 121739Z AUTO 16003KT 9SM VV008 M21/M24 A3019 RMK AO1 SLP309
METAR CYNL 121700Z AUTO 10003KT 6SM FEW006 SCT009 M22/M25 A3020 RMK AO1 SLP313
SPECI CYNL 121654Z AUTO 07004KT 7SM FEW006 SCT012 M22/M25 A3020 RMK AO1 SLP314
SPECI CYNL 121651Z AUTO 07003KT 4SM VV009 M22/M25 A3020 RMK AO1 SLP314
SPECI CYNL 121639Z AUTO 10003KT 9SM FEW009 M22/M26 A3020 RMK AO1 SLP315
METAR CYNL 121600Z AUTO ///// 9SM CLR M24/M27 A3020 RMK AO1 SLP319
SPECI CYNL 121521Z AUTO 00000KT 9SM FEW007 SCT017 M25/M28 A3021 RMK AO1 SLP322
SPECI CYNL 121516Z AUTO 00000KT 9SM SCT008 BKN017 M25/M28 A3021 RMK AO1 SLP321
SPECI CYNL 121514Z AUTO 00000KT 5SM SCT008 BKN012 BKN016 M25/M28 A3021 RMK AO1 SLP321
SPECI CYNL 121512Z AUTO 00000KT 6SM VV009 M25/M28 A3021 RMK AO1 SLP321
SPECI CYNL 121508Z AUTO 00000KT 6SM VV014 M25/M28 A3021 RMK AO1 SLP321
METAR CYNL 121500Z AUTO 00000KT 4SM VV015 M25/M28 A3021 RMK AO1 SLP321
SPECI CYNL 121457Z AUTO 00000KT 5SM VV011 M25/M28 A3021 RMK AO1 SLP320
SPECI CYNL 121437Z AUTO 02002KT 5SM VV009 M25/M28 A3020 RMK AO1 SLP318
SPECI CYNL 121436Z AUTO ///// 5SM VV010 M25/M28 A3020 RMK AO1 SLP318
METAR CYNL 121400Z AUTO 00000KT 8SM FEW007 SCT014 M25/M29 A3021 RMK AO1 SLP320
SPECI CYNL 121355Z AUTO 00000KT 6SM FEW006 SCT008 M25/M29 A3021 RMK AO1 SLP320
SPECI CYNL 121353Z AUTO 00000KT 5SM FEW006 SCT009 BKN019 M25/M29 A3021 RMK AO1 SLP320
SPECI CYNL 121348Z AUTO 00000KT 3SM VV009 M25/M29 A3021 RMK AO1 SLP320
SPECI CYNL 121344Z AUTO 00000KT 3SM VV014 M25/M29 A3021 RMK AO1 SLP320
SPECI CYNL 121341Z AUTO 00000KT 5SM VV018 M25/M29 A3021 RMK AO1 SLP320
SPECI CYNL 121322Z AUTO 00000KT 5SM FEW006 SCT008 M25/M29 A3021 RMK AO1 SLP323
SPECI CYNL 121318Z AUTO 00000KT 4SM VV009 M25/M29 A3022 RMK AO1 SLP324
SPECI CYNL 121315Z AUTO 00000KT 5SM VV010 M25/M29 A3022 RMK AO1 SLP324
METAR CYNL 121300Z AUTO 00000KT 6SM CLR M25/M29 A3022 RMK AO1 SLP324
SPECI CYNL 121229Z AUTO ///// 9SM SCT003 M26/M29 A3021 RMK AO1 SLP321
METAR CYNL 121200Z AUTO 03005KT 9SM VV003 M26/M30 A3022 RMK AO1 SLP323
SPECI CYNL 121137Z AUTO 03005KT 9SM VV003 M26/M30 A3022 RMK AO1 SLP320
SPECI CYNL 121130Z AUTO 04004KT 9SM BKN002 M26/M30 A3022 RMK AO1 SLP320
SPECI CYNL 121126Z AUTO 04004KT 9SM SCT002 M26/M30 A3022 RMK AO1 SLP320
SPECI CYNL 121110Z AUTO ///// 9SM VV002 M26/M30 A3022 RMK AO1 SLP319
SPECI CYNL 121105Z AUTO ///// 9SM FEW002 M26/M30 A3022 RMK AO1 SLP319
METAR CYNL 121100Z AUTO 05004KT 9SM CLR M26/M30 A3022 RMK AO1 SLP318
METAR CYNL 121000Z AUTO ///// 9SM CLR M27/M30 A3022 RMK AO1 SLP316
METAR CYNL 120900Z AUTO 00000KT 9SM CLR M27/M31 A3023 RMK AO1 SLP317
METAR CYNL 120800Z AUTO ///// 9SM CLR M25/M28 A3023 RMK AO1 SLP315
METAR CYNL 120700Z AUTO ///// 9SM CLR M24/M28 A3024 RMK AO1 SLP318
METAR CYNL 120600Z AUTO ///// 9SM CLR M25/M28 A3024 RMK AO1 SLP322
METAR CYNL 120500Z AUTO ///// 9SM CLR M25/M29 A3023 RMK AO1 SLP321
METAR CYNL 120400Z AUTO ///// 9SM CLR M26/M29 A3022 RMK AO1 SLP325
METAR CYNL 120300Z AUTO ///// 9SM CLR M24/M28 A3022 RMK AO1 SLP324
METAR CYNL 120200Z AUTO ///// 9SM CLR M24/M28 A3021 RMK AO1 SLP325
METAR CYNL 120100Z AUTO ///// 9SM CLR M23/M26 A3021 RMK AO1 SLP324
METAR CYNL 120000Z AUTO 00000KT 9SM CLR M20/M23 A3020 RMK AO1 SLP317
METAR CYNL 112300Z AUTO 00000KT 9SM CLR M15/M20 A3020 RMK AO1 SLP309
METAR CYNL 112200Z AUTO 20003KT 9SM CLR M15/M20 A3019 RMK AO1 SLP304
METAR CYNL 112100Z AUTO 23003KT 9SM CLR M15/M20 A3018 RMK AO1 SLP302
METAR CYNL 112000Z AUTO 23003KT 9SM CLR M16/M22 A3018 RMK AO1 SLP304
METAR CYNL 111900Z AUTO VRB02KT 9SM CLR M18/M22 A3018 RMK AO1 SLP303
METAR CYNL 111800Z AUTO 26003KT 9SM CLR M19/M23 A3017 RMK AO1 SLP300
METAR CYNL 111700Z AUTO 21003KT 9SM CLR M23/M27 A3016 RMK AO1 SLP303
METAR CYNL 111600Z AUTO ///// 9SM CLR M26/M30 A3016 RMK AO1 SLP307
METAR CYNL 111500Z AUTO ///// 9SM CLR M28/M32 A3016 RMK AO1 SLP306
METAR CYNL 111400Z AUTO 21003KT 9SM CLR M29/M33 A3014 RMK AO1 SLP301
METAR CYNL 111300Z AUTO ///// 9SM CLR M28/M32 A3013 RMK AO1 SLP294
METAR CYNL 111200Z AUTO 24004KT 9SM CLR M28/M32 A3014 RMK AO1 SLP297
METAR CYNL 111100Z AUTO 25004KT 9SM CLR M27/M31 A3013 RMK AO1 SLP291
METAR CYNL 111000Z AUTO ///// 9SM CLR M27/M31 A3013 RMK AO1 SLP288
METAR CYNL 110900Z AUTO 00000KT 9SM CLR M27/M31 A3014 RMK AO1 SLP288
METAR CYNL 110800Z AUTO ///// 9SM CLR M27/M30 A3014 RMK AO1 SLP289
METAR CYNL 110700Z AUTO 22003KT 9SM CLR M26/M30 A3014 RMK AO1 SLP289
METAR CYNL 110600Z AUTO 23004KT 9SM CLR M26/M29 A3014 RMK AO1 SLP290
METAR CYNL 110500Z AUTO ///// 9SM CLR M25/M29 A3014 RMK AO1 SLP291
METAR CYNL 110400Z AUTO 24003KT 9SM CLR M24/M28 A3014 RMK AO1 SLP291
METAR CYNL 110300Z AUTO ///// 9SM CLR M24/M27 A3014 RMK AO1 SLP294
METAR CYNL 110200Z AUTO ///// 9SM CLR M22/M26 A3014 RMK AO1 SLP294
METAR CYNL 110100Z AUTO ///// 9SM CLR M22/M25 A3016 RMK AO1 SLP300
METAR CYNL 110000Z AUTO ///// 9SM CLR M20/M24 A3016 RMK AO1 SLP301
METAR CYNL 102300Z AUTO ///// 9SM CLR M17/M23 A3017 RMK AO1 SLP300
METAR CYNL 102200Z AUTO ///// 9SM CLR M16/M22 A3018 RMK AO1 SLP304
METAR CYNL 102100Z AUTO ///// 9SM CLR M16/M22 A3019 RMK AO1 SLP306
METAR CYNL 102000Z AUTO ///// 9SM CLR M17/M23 A3021 RMK AO1 SLP312
METAR CYNL 101900Z AUTO ///// 9SM CLR M18/M24 A3022 RMK AO1 SLP320
METAR CYNL 101800Z AUTO ///// 9SM CLR M19/M24 A3024 RMK AO1 SLP329
METAR CYNL 101700Z AUTO 24007KT 9SM CLR M21/M26 A3025 RMK AO1 SLP335
METAR CYNL 101600Z AUTO ///// 9SM CLR M23/M28 A3025 RMK AO1 SLP340
METAR CYNL 101500Z AUTO 26007KT 9SM CLR M24/M28 A3026 RMK AO1 SLP341
METAR CYNL 101400Z AUTO 25007KT 9SM CLR M26/M30 A3027 RMK AO1 SLP348
METAR CYNL 101300Z AUTO 25005KT 9SM CLR M27/M31 A3029 RMK AO1 SLP351
METAR CYNL 101200Z AUTO 24006KT 9SM CLR M27/M31 A3030 RMK AO1 SLP356
METAR CYNL 101100Z AUTO 25005KT 9SM CLR M28/M32 A3032 RMK AO1 PRESFR SLP362
METAR CYNL 101000Z AUTO 25004KT 9SM CLR M28/M32 A3034 RMK AO1 SLP367
METAR CYNL 100900Z AUTO 24006KT 9SM CLR M27/M31 A3035 RMK AO1 SLP368
METAR CYNL 100800Z AUTO 24005KT 9SM CLR M28/M32 A3037 RMK AO1 SLP375
METAR CYNL 100700Z AUTO 24005KT 9SM CLR M29/M33 A3038 RMK AO1 SLP382
METAR CYNL 100600Z AUTO ///// 9SM CLR M29/M33 A3039 RMK AO1 SLP389
METAR CYNL 100500Z AUTO 25003KT 9SM CLR M29/M33 A3040 RMK AO1 SLP396
METAR CYNL 100400Z AUTO ///// 9SM CLR M28/M32 A3042 RMK AO1 SLP400
METAR CYNL 100300Z AUTO 25004KT 9SM CLR M27/M31 A3043 RMK AO1 PRESFR SLP406
METAR CYNL 100200Z AUTO 24004KT 9SM CLR M25/M29 A3045 RMK AO1 SLP412
METAR CYNL 100100Z AUTO 26005KT 9SM CLR M25/M28 A3047 RMK AO1 PRESFR SLP417
METAR CYNL 100000Z AUTO 26004KT 9SM CLR M24/M28 A3049 RMK AO1 SLP423
METAR CYNL 092300Z AUTO ///// 9SM CLR M22/M27 A3051 RMK AO1 SLP427
METAR CYNL 092200Z AUTO ///// 9SM CLR M22/M26 A3051 RMK AO1 SLP427
METAR CYNL 092100Z AUTO ///// 9SM CLR M22/M26 A3051 RMK AO1 SLP426
SPECI CYNL 092035Z AUTO ///// 9SM SCT005 M22/M26 A3051 RMK AO1 SLP427
SPECI CYNL 092020Z AUTO ///// 6SM VV005 M22/M26 A3051 RMK AO1 SLP428
SPECI CYNL 092014Z AUTO ///// 8SM FEW005 M22/M26 A3051 RMK AO1 SLP428
METAR CYNL 092000Z AUTO ///// 9SM CLR M22/M26 A3051 RMK AO1 SLP428
METAR CYNL 091900Z AUTO ///// 9SM FEW005 M24/M28 A3053 RMK AO1 SLP437
SPECI CYNL 091856Z AUTO ///// 7SM SCT005 M24/M28 A3053 RMK AO1 SLP438
SPECI CYNL 091852Z AUTO ///// 9SM VV005 M24/M28 A3053 RMK AO1 SLP439
METAR CYNL 091800Z AUTO 28010G18KT 8SM SCT004 M26/M30 A3055 RMK AO1 SLP447
SPECI CYNL 091755Z AUTO 28012G18KT 7SM SCT004 M26/M30 A3055 RMK AO1 SLP447
SPECI CYNL 091735Z AUTO 28010G20KT 5SM VV004 M27/M31 A3055 RMK AO1 SLP449
SPECI CYNL 091727Z AUTO 27011G17KT 4SM VV005 M27/M31 A3056 RMK AO1 SLP450
SPECI CYNL 091724Z AUTO 28012G18KT 5SM VV004 M27/M31 A3056 RMK AO1 SLP451
SPECI CYNL 091723Z AUTO 28011G18KT 5SM VV005 M27/M31 A3056 RMK AO1 SLP451
SPECI CYNL 091721Z AUTO 28009G18KT 4SM VV004 M27/M31 A3056 RMK AO1 SLP451
METAR CYNL 091700Z AUTO 28010G16KT 4SM VV005 M28/M32 A3055 RMK AO1 SLP451
SPECI CYNL 091646Z AUTO 27012G19KT 3SM VV005 M28/M32 A3056 RMK AO1 SLP452
SPECI CYNL 091638Z AUTO 28011G18KT 2SM VV005 M28/M33 A3056 RMK AO1 SLP453
SPECI CYNL 091635Z AUTO 28012G18KT 1 3/4SM VV006 M28/M33 A3056 RMK AO1 SLP453
SPECI CYNL 091634Z AUTO 27010G18KT 2SM VV006 M28/M33 A3056 RMK AO1 SLP453
SPECI CYNL 091631Z AUTO 27011G18KT 1 3/4SM VV005 M28/M33 A3056 RMK AO1 SLP453
SPECI CYNL 091626Z AUTO 28011G20KT 2SM VV005 M28/M33 A3056 RMK AO1 SLP453
SPECI CYNL 091623Z AUTO 28012G20KT 1 3/4SM VV005 M28/M33 A3056 RMK AO1 SLP453
SPECI CYNL 091618Z AUTO 28012G20KT 2SM VV005 M28/M33 A3056 RMK AO1 SLP453
SPECI CYNL 091611Z AUTO 28010G17KT 2 1/2SM VV004 M29/M33 A3055 RMK AO1 SLP452
SPECI CYNL 091608Z AUTO 28009G17KT 3SM VV004 M29/M33 A3055 RMK AO1 SLP452
METAR CYNL 091600Z AUTO 28010G16KT 2 1/2SM VV004 M29/M33 A3055 RMK AO1 SLP452
SPECI CYNL 091559Z AUTO 28011G16KT 2 1/2SM VV004 M29/M33 A3055 RMK AO1 SLP453
SPECI CYNL 091527Z AUTO 28011G16KT 3SM VV004 M30/M34 A3056 RMK AO1 SLP454
SPECI CYNL 091522Z AUTO ///// 2 1/2SM VV004 M30/M34 A3055 RMK AO1 SLP454
SPECI CYNL 091517Z AUTO 27010G16KT 4SM VV003 M30/M34 A3055 RMK AO1 SLP454
SPECI CYNL 091510Z AUTO 28012G17KT 4SM FEW004 M30/M34 A3055 RMK AO1 SLP454
METAR CYNL 091500Z AUTO ///// 6SM CLR M30/M34 A3055 RMK AO1 SLP453
SPECI CYNL 091407Z AUTO 27011G17KT 5SM SCT004 M30/M34 A3055 RMK AO1 SLP452
METAR CYNL 091400Z AUTO 28011G17KT 4SM BKN004 M30/M34 A3055 RMK AO1 SLP452
SPECI CYNL 091305Z AUTO ///// 3SM VV004 M30/M34 A3056 RMK AO1 SLP455
METAR CYNL 091300Z AUTO 28009KT 4SM FEW003 M30/M34 A3055 RMK AO1 SLP455
SPECI CYNL 091259Z AUTO 28010KT 4SM FEW003 M30/M34 A3055 RMK AO1 SLP454
METAR CYNL 091200Z AUTO 27011KT 9SM CLR M30/M34 A3056 RMK AO1 SLP455
SPECI CYNL 091127Z AUTO 27009G16KT 9SM SCT007 M29/M34 A3056 RMK AO1 SLP454
SPECI CYNL 091110Z AUTO ///// 9SM VV007 M29/M34 A3057 RMK AO1 SLP456
METAR CYNL 091100Z AUTO 28009G15KT 9SM FEW008 M29/M33 A3056 RMK AO1 SLP455
SPECI CYNL 091039Z AUTO 27008G16KT 7SM SCT008 M29/M33 A3057 RMK AO1 SLP453
SPECI CYNL 091028Z AUTO 28011KT 6SM VV006 M29/M33 A3057 RMK AO1 SLP453
SPECI CYNL 091024Z AUTO 27010KT 6SM FEW007 M29/M33 A3057 RMK AO1 SLP453
METAR CYNL 091000Z AUTO 28008KT 9SM CLR M29/M33 A3057 RMK AO1 SLP452
METAR CYNL 090900Z AUTO 27009G16KT 9SM CLR M29/M34 A3057 RMK AO1 SLP454
METAR CYNL 090800Z AUTO ///// 9SM CLR M29/M34 A3057 RMK AO1 SLP453
METAR CYNL 090700Z AUTO ///// 9SM CLR M29/M34 A3057 RMK AO1 SLP453
METAR CYNL 090600Z AUTO 28010KT 9SM CLR M29/M33 A3057 RMK AO1 SLP455
SPECI CYNL 090514Z AUTO 28007KT 9SM SCT008 M29/M34 A3058 RMK AO1 SLP457
METAR CYNL 090500Z AUTO 27005KT 9SM OVC009 M29/M34 A3058 RMK AO1 SLP458
SPECI CYNL 090436Z AUTO 27005KT 9SM BKN009 M30/M34 A3058 RMK AO1 SLP460
SPECI CYNL 090430Z AUTO 28006KT 9SM SCT008 M30/M34 A3058 RMK AO1 SLP460
SPECI CYNL 090425Z AUTO 27006KT 9SM VV008 M30/M34 A3058 RMK AO1 SLP459
SPECI CYNL 090420Z AUTO 28006KT 9SM FEW008 M30/M34 A3058 RMK AO1 SLP460
METAR CYNL 090400Z AUTO 28006KT 9SM CLR M29/M34 A3058 RMK AO1 SLP460
SPECI CYNL 090315Z AUTO 28006KT 7SM SCT008 M29/M34 A3058 RMK AO1 SLP463
METAR CYNL 090300Z AUTO 28005KT 6SM BKN008 M30/M34 A3058 RMK AO1 SLP463
SPECI CYNL 090258Z AUTO 28005KT 7SM BKN008 M30/M34 A3058 RMK AO1 SLP471
SPECI CYNL 090247Z AUTO 28007KT 9SM FEW009 M30/M34 A3058 RMK AO1 SLP471
METAR CYNL 090200Z AUTO 29007KT 9SM CLR M30/M34 A3057 RMK AO1 SLP469
METAR CYNL 090100Z AUTO 29006KT 9SM CLR M29/M33 A3057 RMK AO1 SLP467
METAR CYNL 090000Z AUTO 28005KT 9SM CLR M28/M32 A3056 RMK AO1 SLP468
METAR CYNL 082300Z AUTO 28006KT 9SM FEW007 M26/M30 A3055 RMK AO1 SLP459
SPECI CYNL 082204Z AUTO 28006KT 9SM FEW006 M25/M29 A3054 RMK AO1 SLP457
METAR CYNL 082200Z AUTO 28005KT 9SM CLR M25/M29 A3054 RMK AO1 SLP457
METAR CYNL 082100Z AUTO 28006KT 9SM CLR M25/M29 A3054 RMK AO1 SLP454
METAR CYNL 082000Z AUTO ///// 9SM FEW006 M25/M29 A3054 RMK AO1 SLP453
SPECI CYNL 081938Z AUTO 30005KT 9SM FEW006 M25/M29 A3053 RMK AO1 SLP452
METAR CYNL 081900Z AUTO 31005KT 9SM CLR M26/M30 A3053 RMK AO1 SLP453
METAR CYNL 081800Z AUTO 30005KT 9SM FEW032 M26/M31 A3053 RMK AO1 SLP452
METAR CYNL 081700Z AUTO 29005KT 9SM CLR M28/M33 A3052 RMK AO1 SLP451
METAR CYNL 081600Z AUTO 28003KT 9SM CLR M31/M35 A3051 RMK AO1 SLP450
METAR CYNL 081500Z AUTO 30003KT 9SM CLR M36/M41 A3050 RMK AO1 SLP452
SPECI CYNL 081424Z AUTO 00000KT 4SM CLR M37/M42 A3049 RMK AO1 SLP450
SPECI CYNL 081423Z AUTO 00000KT 2SM CLR M37/M42 A3049 RMK AO1 SLP450
SPECI CYNL 081422Z AUTO ///// 1 3/4SM CLR M37/M42 A3049 RMK AO1 SLP450
SPECI CYNL 081421Z AUTO 00000KT 1SM CLR M37/M42 A3049 RMK AO1 SLP450
SPECI CYNL 081419Z AUTO 00000KT 1/2SM CLR M38/M43 A3049 RMK AO1 SLP450
SPECI CYNL 081417Z AUTO 00000KT 2 1/2SM CLR M38/M43 A3049 RMK AO1 SLP450
SPECI CYNL 081407Z AUTO 00000KT 5SM CLR M37/M42 A3049 RMK AO1 SLP449
SPECI CYNL 081406Z AUTO 00000KT 2 1/2SM CLR M37/M42 A3049 RMK AO1 SLP448
SPECI CYNL 081405Z AUTO 00000KT 1 1/2SM CLR M36/M42 A3049 RMK AO1 SLP448
SPECI CYNL 081404Z AUTO 00000KT 1 1/4SM CLR M36/M41 A3049 RMK AO1 SLP448
SPECI CYNL 081403Z AUTO 00000KT 1 3/4SM CLR M36/M41 A3049 RMK AO1 SLP448
METAR CYNL 081400Z AUTO 00000KT 9SM CLR M35/M40 A3049 RMK AO1 SLP447
SPECI CYNL 081301Z AUTO ///// 3SM CLR M38/M43 A3048 RMK AO1 SLP447
METAR CYNL 081300Z AUTO 27002KT 2SM CLR M38/M43 A3048 RMK AO1 SLP447
SPECI CYNL 081258Z AUTO 00000KT 1 1/2SM CLR M38/M43 A3048 RMK AO1 SLP442
SPECI CYNL 081228Z AUTO 24003KT 9SM SCT005 M38/M43 A3048 RMK AO1 SLP439
SPECI CYNL 081221Z AUTO 00000KT 9SM BKN005 BKN007 M38/M43 A3048 RMK AO1 SLP439
SPECI CYNL 081219Z AUTO 00000KT 9SM VV004 M38/M43 A3048 RMK AO1 SLP439
METAR CYNL 081200Z AUTO 27003KT 9SM VV007 M38/M43 A3048 RMK AO1 SLP440
SPECI CYNL 081153Z AUTO 00000KT 9SM SCT004 OVC006 M37/M42 A3048 RMK AO1 SLP435
SPECI CYNL 081118Z AUTO 29003KT 9SM OVC004 M38/M43 A3048 RMK AO1 SLP436
METAR CYNL 081100Z AUTO 29003KT 9SM OVC006 M39/M44 A3048 RMK AO1 SLP435
SPECI CYNL 081027Z AUTO 26002KT 9SM BKN008 M39/M44 A3047 RMK AO1 SLP428
SPECI CYNL 081023Z AUTO 27003KT 9SM SCT007 M39/M44 A3047 RMK AO1 SLP427
SPECI CYNL 081020Z AUTO 26002KT 9SM VV007 M38/M44 A3047 RMK AO1 SLP427
SPECI CYNL 081015Z AUTO 25002KT 9SM FEW007 M38/M43 A3047 RMK AO1 SLP427
METAR CYNL 081000Z AUTO 28004KT 9SM CLR M39/M44 A3047 RMK AO1 SLP427
SPECI CYNL 080933Z AUTO 00000KT 4SM CLR M39/M44 A3047 RMK AO1 SLP427
SPECI CYNL 080931Z AUTO 00000KT 2SM CLR M39/M44 A3047 RMK AO1 SLP426
SPECI CYNL 080929Z AUTO 00000KT 1 1/2SM CLR M39/M44 A3047 RMK AO1 SLP426
SPECI CYNL 080928Z AUTO 00000KT 1 1/4SM CLR M39/M44 A3047 RMK AO1 SLP426
SPECI CYNL 080926Z AUTO 00000KT 1 3/4SM CLR M39/M44 A3047 RMK AO1 SLP426
SPECI CYNL 080925Z AUTO 00000KT 2 1/2SM CLR M39/M44 A3047 RMK AO1 SLP426
SPECI CYNL 080916Z AUTO 00000KT 5SM CLR M39/M44 A3046 RMK AO1 SLP424
SPECI CYNL 080915Z AUTO 00000KT 2 1/2SM CLR M39/M44 A3046 RMK AO1 SLP424
SPECI CYNL 080914Z AUTO ///// 1 1/2SM CLR M39/M44 A3046 RMK AO1 SLP424
SPECI CYNL 080912Z AUTO ///// 1 1/4SM CLR M39/M44 A3046 RMK AO1 SLP424
SPECI CYNL 080911Z AUTO ///// 1 3/4SM CLR M39/M44 A3046 RMK AO1 SLP424
SPECI CYNL 080905Z AUTO 00000KT 4SM CLR M39/M44 A3046 RMK AO1 SLP424
SPECI CYNL 080904Z AUTO 29002KT 2SM CLR M39/M44 A3046 RMK AO1 SLP423
SPECI CYNL 080903Z AUTO 29002KT 1 3/4SM CLR M39/M44 A3046 RMK AO1 SLP423
METAR CYNL 080900Z AUTO 30002KT 2 1/2SM CLR M39/M44 A3046 RMK AO1 SLP423
SPECI CYNL 080853Z AUTO 30002KT 2 1/2SM CLR M39/M44 A3046 RMK AO1 SLP423
METAR CYNL 080800Z AUTO 00000KT 9SM CLR M39/M44 A3045 RMK AO1 SLP422
METAR CYNL 080700Z AUTO 00000KT 9SM CLR M38/M43 A3046 RMK AO1 SLP422
METAR CYNL 080600Z AUTO ///// 9SM CLR M37/M42 A3045 RMK AO1 SLP421
METAR CYNL 080500Z AUTO 32003KT 9SM CLR M37/M42 A3045 RMK AO1 SLP429
METAR CYNL 080400Z AUTO 00000KT 9SM CLR M36/M40 A3045 RMK AO1 SLP433
SPECI CYNL 080333Z AUTO 00000KT 4SM CLR M35/M40 A3046 RMK AO1 SLP439
SPECI CYNL 080330Z AUTO 02002KT 1 3/4SM CLR M35/M40 A3046 RMK AO1 SLP439
METAR CYNL 080300Z AUTO 00000KT 9SM CLR M35/M40 A3046 RMK AO1 SLP439
METAR CYNL 080200Z AUTO 00000KT 9SM CLR M33/M37 A3045 RMK AO1 SLP438
METAR CYNL 080100Z AUTO 00000KT 9SM CLR M30/M34 A3046 RMK AO1 SLP435
METAR CYNL 080000Z AUTO ///// 9SM CLR M27/M31 A3046 RMK AO1 SLP430
METAR CYNL 072300Z AUTO 00000KT 9SM CLR M22/M27 A3046 RMK AO1 SLP422
METAR CYNL 072200Z AUTO ///// 9SM FEW009 M22/M26 A3046 RMK AO1 SLP423
SPECI CYNL 072156Z AUTO ///// 9SM FEW009 M22/M26 A3046 RMK AO1 SLP423
METAR CYNL 072100Z AUTO ///// 9SM CLR M22/M27 A3047 RMK AO1 SLP425
METAR CYNL 072000Z AUTO 00000KT 9SM CLR M23/M28 A3047 RMK AO1 SLP425
METAR CYNL 071900Z AUTO 00000KT 9SM CLR M24/M29 A3048 RMK AO1 SLP429
SPECI CYNL 071838Z AUTO ///// 9SM SCT003 M26/M31 A3049 RMK AO1 SLP436
SPECI CYNL 071836Z AUTO 00000KT 9SM SCT003 BKN005 M27/M31 A3049 RMK AO1 SLP437
SPECI CYNL 071801Z AUTO 00000KT 9SM OVC004 M30/M35 A3050 RMK AO1 SLP443
METAR CYNL 071800Z AUTO 00000KT 9SM OVC005 M30/M35 A3050 RMK AO1 SLP443
SPECI CYNL 071712Z AUTO 00000KT 3SM OVC006 M33/M38 A3050 RMK AO1 SLP448
SPECI CYNL 071708Z AUTO 00000KT 2 1/2SM OVC006 M33/M38 A3050 RMK AO1 SLP448
METAR CYNL 071700Z AUTO 00000KT 9SM OVC007 M33/M38 A3050 RMK AO1 SLP449
SPECI CYNL 071610Z AUTO 24003KT 9SM VV007 M37/M42 A3050 RMK AO1 SLP453
SPECI CYNL 071605Z AUTO 23003KT 9SM FEW008 M37/M42 A3050 RMK AO1 SLP453
METAR CYNL 071600Z AUTO 24002KT 9SM CLR M37/M42 A3050 RMK AO1 SLP453
SPECI CYNL 071541Z AUTO 00000KT 4SM CLR M38/M43 A3050 RMK AO1 SLP453
SPECI CYNL 071537Z AUTO ///// 2 1/2SM CLR M38/M43 A3050 RMK AO1 SLP453
METAR CYNL 071500Z AUTO ///// 9SM CLR M39/M45 A3049 RMK AO1 SLP452
SPECI CYNL 071440Z AUTO 00000KT 4SM CLR M39/M44 A3049 RMK AO1 SLP450
SPECI CYNL 071439Z AUTO 00000KT 2SM CLR M39/M44 A3049 RMK AO1 SLP450
SPECI CYNL 071438Z AUTO 00000KT 1 3/4SM CLR M39/M44 A3049 RMK AO1 SLP450
SPECI CYNL 071437Z AUTO 00000KT 2SM CLR M39/M44 A3049 RMK AO1 SLP450
METAR CYNL 071400Z AUTO 26004KT 9SM CLR M39/M45 A3049 RMK AO1 SLP451
SPECI CYNL 071312Z AUTO 00000KT 3SM CLR M39/M44 A3049 RMK AO1 SLP452
SPECI CYNL 071311Z AUTO 00000KT 1 3/4SM CLR M39/M44 A3049 RMK AO1 SLP452
SPECI CYNL 071310Z AUTO 00000KT 2SM CLR M39/M44 A3049 RMK AO1 SLP452
SPECI CYNL 071303Z AUTO 00000KT 9SM CLR M39/M44 A3049 RMK AO1 SLP452
SPECI CYNL 071302Z AUTO 00000KT 2 1/2SM CLR M39/M44 A3049 RMK AO1 SLP452
METAR CYNL 071300Z AUTO ///// 1SM CLR M39/M44 A3049 RMK AO1 SLP452
SPECI CYNL 071258Z AUTO ///// 1 1/4SM CLR M39/M44 A3049 RMK AO1 SLP447
SPECI CYNL 071256Z AUTO ///// 1 3/4SM CLR M39/M44 A3049 RMK AO1 SLP447
SPECI CYNL 071253Z AUTO ///// 1 1/4SM CLR M39/M44 A3049 RMK AO1 SLP447
SPECI CYNL 071252Z AUTO ///// 1 1/2SM CLR M39/M44 A3049 RMK AO1 SLP447
METAR CYNL 071200Z AUTO 26004KT 9SM CLR M38/M43 A3049 RMK AO1 SLP446
SPECI CYNL 071133Z AUTO 28004KT 3SM CLR M38/M43 A3049 RMK AO1 SLP444
SPECI CYNL 071131Z AUTO 28004KT 2 1/2SM CLR M38/M43 A3049 RMK AO1 SLP444
METAR CYNL 071100Z AUTO 26003KT 9SM CLR M38/M43 A3050 RMK AO1 SLP446
METAR CYNL 071000Z AUTO 24004KT 9SM CLR M38/M43 A3050 RMK AO1 SLP442
SPECI CYNL 070922Z AUTO 21002KT 5SM CLR M37/M42 A3050 RMK AO1 SLP441
SPECI CYNL 070921Z AUTO 00000KT 2SM CLR M37/M42 A3050 RMK AO1 SLP441
SPECI CYNL 070920Z AUTO 00000KT 1 1/2SM CLR M37/M42 A3050 RMK AO1 SLP440
SPECI CYNL 070917Z AUTO 00000KT 1SM CLR M37/M42 A3050 RMK AO1 SLP440
SPECI CYNL 070915Z AUTO 00000KT 5/8SM CLR M37/M42 A3050 RMK AO1 SLP440
SPECI CYNL 070913Z AUTO 00000KT 1 3/4SM CLR M37/M42 A3050 RMK AO1 SLP439
METAR CYNL 070900Z AUTO ///// 9SM CLR M36/M41 A3050 RMK AO1 SLP438
METAR CYNL 070800Z AUTO 29003KT 9SM CLR M34/M39 A3050 RMK AO1 SLP435
METAR CYNL 070700Z AUTO 23004KT 9SM CLR M35/M40 A3050 RMK AO1 SLP437
METAR CYNL 070600Z AUTO 28004KT 9SM CLR M36/M41 A3049 RMK AO1 SLP436
METAR CYNL 070500Z AUTO 27004KT 9SM CLR M34/M39 A3048 RMK AO1 SLP434
METAR CYNL 070400Z AUTO 25003KT 9SM CLR M34/M38 A3048 RMK AO1 SLP435
METAR CYNL 070300Z AUTO 00000KT 9SM CLR M33/M38 A3048 RMK AO1 SLP442
METAR CYNL 070200Z AUTO 00000KT 9SM CLR M33/M38 A3047 RMK AO1 SLP441
METAR CYNL 070100Z AUTO 00000KT 9SM CLR M31/M35 A3047 RMK AO1 SLP440
METAR CYNL 070000Z AUTO ///// 9SM CLR M29/M33 A3047 RMK AO1 SLP436
METAR CYNL 062300Z AUTO 30004KT 9SM CLR M26/M31 A3046 RMK AO1 SLP429
METAR CYNL 062200Z AUTO 29006KT 9SM CLR M25/M30 A3045 RMK AO1 SLP420
SPECI CYNL 062111Z AUTO ///// 9SM SCT011 M25/M29 A3044 RMK AO1 SLP420
METAR CYNL 062100Z AUTO 30004KT 9SM OVC011 M25/M29 A3044 RMK AO1 SLP421
SPECI CYNL 062031Z AUTO ///// 9SM BKN011 M25/M29 A3044 RMK AO1 SLP420
SPECI CYNL 062023Z AUTO 29004KT 9SM SCT008 M25/M30 A3044 RMK AO1 SLP419
SPECI CYNL 062018Z AUTO ///// 9SM SCT009 BKN011 M25/M30 A3044 RMK AO1 SLP419
METAR CYNL 062000Z AUTO 28004KT 9SM OVC008 M26/M30 A3044 RMK AO1 SLP420
SPECI CYNL 061929Z AUTO 29004KT 9SM OVC009 M27/M31 A3044 RMK AO1 SLP424
METAR CYNL 061900Z AUTO 30003KT 9SM OVC010 M27/M31 A3044 RMK AO1 SLP425
METAR CYNL 061800Z AUTO 31005KT 9SM OVC010 M29/M33 A3044 RMK AO1 PRESRR SLP425
SPECI CYNL 061741Z AUTO 31004KT 9SM OVC010 M29/M33 A3043 RMK AO1 SLP423
SPECI CYNL 061736Z AUTO 30004KT 9SM OVC009 M29/M33 A3043 RMK AO1 SLP423
SPECI CYNL 061735Z AUTO 29004KT 9SM SCT008 OVC010 M29/M33 A3043 RMK AO1 SLP422
METAR CYNL 061700Z AUTO ///// 9SM OVC008 M30/M35 A3042 RMK AO1 SLP421
METAR CYNL 061600Z AUTO 27002KT 9SM OVC006 M36/M41 A3040 RMK AO1 SLP423
SPECI CYNL 061534Z AUTO ///// 9SM SCT005 BKN007 M36/M41 A3040 RMK AO1 SLP419
METAR CYNL 061500Z AUTO 27002KT 9SM SCT007 M36/M41 A3039 RMK AO1 SLP418
SPECI CYNL 061455Z AUTO ///// 9SM SCT007 M36/M41 A3039 RMK AO1 SLP418
SPECI CYNL 061429Z AUTO 28004KT 9SM SCT007 BKN009 M37/M42 A3039 RMK AO1 SLP417
SPECI CYNL 061417Z AUTO 28004KT 9SM FEW008 M37/M42 A3039 RMK AO1 SLP417
METAR CYNL 061400Z AUTO 27003KT 9SM CLR M38/M43 A3038 RMK AO1 SLP416
SPECI CYNL 061344Z AUTO 30003KT 9SM CLR M39/M44 A3038 RMK AO1 SLP417
SPECI CYNL 061343Z AUTO 30003KT 2SM CLR M39/M44 A3038 RMK AO1 SLP417
SPECI CYNL 061342Z AUTO 29003KT 1 3/4SM CLR M39/M44 A3038 RMK AO1 SLP417
SPECI CYNL 061341Z AUTO 28003KT 2 1/2SM CLR M39/M44 A3039 RMK AO1 SLP417
SPECI CYNL 061330Z AUTO 26002KT 9SM CLR M38/M43 A3039 RMK AO1 SLP416
SPECI CYNL 061329Z AUTO 00000KT 2 1/2SM CLR M38/M43 A3038 RMK AO1 SLP415
SPECI CYNL 061326Z AUTO ///// 1 1/4SM CLR M37/M42 A3038 RMK AO1 SLP414
SPECI CYNL 061324Z AUTO 00000KT 1 3/4SM CLR M37/M42 A3038 RMK AO1 SLP414
SPECI CYNL 061323Z AUTO ///// 2SM CLR M37/M42 A3038 RMK AO1 SLP413
SPECI CYNL 061301Z AUTO 28003KT 3SM CLR M38/M43 A3037 RMK AO1 SLP412
METAR CYNL 061300Z AUTO 28003KT 2 1/2SM CLR M38/M43 A3037 RMK AO1 SLP413
SPECI CYNL 061259Z AUTO 28003KT 2 1/2SM CLR M38/M43 A3037 RMK AO1 SLP411
SPECI CYNL 061224Z AUTO 27004KT 9SM CLR M39/M44 A3037 RMK AO1 SLP408
SPECI CYNL 061221Z AUTO 28004KT 1SM CLR M39/M45 A3037 RMK AO1 SLP408
METAR CYNL 061200Z AUTO 26003KT 9SM CLR M39/M44 A3036 RMK AO1 SLP406
SPECI CYNL 061155Z AUTO 26004KT 9SM CLR M39/M44 A3036 RMK AO1 SLP401
SPECI CYNL 061152Z AUTO 27004KT 1 1/4SM CLR M39/M44 A3036 RMK AO1 SLP401
METAR CYNL 061100Z AUTO 28003KT 9SM CLR M36/M41 A3036 RMK AO1 SLP396
METAR CYNL 061000Z AUTO 29003KT 9SM CLR M38/M43 A3036 RMK AO1 SLP394
SPECI CYNL 060950Z AUTO 00000KT 4SM CLR M38/M43 A3036 RMK AO1 SLP393
SPECI CYNL 060949Z AUTO 00000KT 2 1/2SM CLR M38/M43 A3036 RMK AO1 SLP392
SPECI CYNL 060938Z AUTO 29003KT 3SM CLR M38/M43 A3036 RMK AO1 SLP392
SPECI CYNL 060934Z AUTO 31002KT 1 1/4SM CLR M38/M43 A3036 RMK AO1 SLP390
SPECI CYNL 060933Z AUTO 31003KT 2 1/2SM CLR M38/M43 A3036 RMK AO1 SLP390
METAR CYNL 060900Z AUTO 28002KT 9SM FEW031 M38/M43 A3035 RMK AO1 SLP391
SPECI CYNL 060827Z AUTO 00000KT 8SM CLR M39/M44 A3035 RMK AO1 SLP391
SPECI CYNL 060826Z AUTO 00000KT 2SM CLR M39/M44 A3035 RMK AO1 SLP391
SPECI CYNL 060822Z AUTO ///// 1SM CLR M39/M44 A3035 RMK AO1 SLP391
SPECI CYNL 060821Z AUTO ///// 1 1/2SM CLR M39/M44 A3035 RMK AO1 SLP391
METAR CYNL 060800Z AUTO 31002KT 9SM FEW030 M39/M44 A3035 RMK AO1 SLP391
SPECI CYNL 060726Z AUTO 26003KT 4SM CLR M38/M43 A3035 RMK AO1 SLP388
SPECI CYNL 060725Z AUTO 27003KT 2SM CLR M38/M43 A3035 RMK AO1 SLP388
SPECI CYNL 060724Z AUTO 27003KT 1 3/4SM CLR M38/M43 A3035 RMK AO1 SLP388
SPECI CYNL 060723Z AUTO 27003KT 2 1/2SM CLR M38/M43 A3035 RMK AO1 SLP388
METAR CYNL 060700Z AUTO 24006KT 9SM CLR M38/M43 A3034 RMK AO1 SLP387
SPECI CYNL 060649Z AUTO 24003KT 4SM CLR M38/M43 A3034 RMK AO1 SLP388
SPECI CYNL 060648Z AUTO VRB02KT 2SM CLR M38/M43 A3034 RMK AO1 SLP388
SPECI CYNL 060645Z AUTO VRB02KT 1 3/4SM CLR M39/M44 A3034 RMK AO1 SLP388
METAR CYNL 060600Z AUTO 31002KT 9SM CLR M39/M44 A3033 RMK AO1 SLP384
SPECI CYNL 060546Z AUTO 00000KT 5SM CLR M39/M44 A3033 RMK AO1 SLP389
SPECI CYNL 060545Z AUTO ///// 2 1/2SM CLR M39/M44 A3033 RMK AO1 SLP389
SPECI CYNL 060544Z AUTO ///// 1 1/2SM CLR M39/M44 A3033 RMK AO1 SLP389
SPECI CYNL 060539Z AUTO 00000KT 1SM CLR M39/M44 A3033 RMK AO1 SLP389
SPECI CYNL 060538Z AUTO 00000KT 3/4SM CLR M39/M44 A3032 RMK AO1 SLP389
SPECI CYNL 060535Z AUTO 30002KT 1 1/4SM CLR M39/M44 A3032 RMK AO1 SLP389
SPECI CYNL 060534Z AUTO 31002KT 1 1/2SM CLR M39/M44 A3032 RMK AO1 SLP389
SPECI CYNL 060533Z AUTO 00000KT 1 1/4SM CLR M39/M44 A3032 RMK AO1 SLP389
SPECI CYNL 060531Z AUTO 00000KT 2 1/2SM CLR M39/M44 A3032 RMK AO1 SLP388
METAR CYNL 060500Z AUTO ///// 9SM CLR M38/M43 A3032 RMK AO1 SLP385
METAR CYNL 060400Z AUTO ///// 9SM CLR M37/M42 A3031 RMK AO1 SLP388
METAR CYNL 060300Z AUTO 30003KT 9SM CLR M36/M41 A3030 RMK AO1 SLP390
METAR CYNL 060200Z AUTO 27003KT 9SM CLR M35/M39 A3029 RMK AO1 SLP390
METAR CYNL 060100Z AUTO 31003KT 9SM CLR M33/M38 A3028 RMK AO1 SLP384
METAR CYNL 060000Z AUTO 32003KT 9SM CLR M29/M34 A3028 RMK AO1 SLP377
METAR CYNL 052300Z AUTO 33004KT 9SM CLR M27/M32 A3027 RMK AO1 SLP369
METAR CYNL 052200Z AUTO 30004KT 9SM CLR M25/M30 A3026 RMK AO1 SLP363
METAR CYNL 052100Z AUTO ///// 9SM CLR M25/M30 A3025 RMK AO1 SLP359
METAR CYNL 052000Z AUTO ///// 9SM CLR M25/M31 A3025 RMK AO1 SLP358
METAR CYNL 051900Z AUTO ///// 9SM CLR M27/M33 A3025 RMK AO1 SLP359
METAR CYNL 051800Z AUTO ///// 9SM CLR M30/M36 A3025 RMK AO1 SLP365
SPECI CYNL 051732Z AUTO ///// 4SM CLR M32/M38 A3025 RMK AO1 SLP371
SPECI CYNL 051730Z AUTO 00000KT 2SM CLR M32/M38 A3025 RMK AO1 SLP371
SPECI CYNL 051729Z AUTO 00000KT 1 3/4SM CLR M32/M38 A3025 RMK AO1 SLP371
SPECI CYNL 051728Z AUTO 00000KT 1 1/4SM CLR M32/M38 A3025 RMK AO1 SLP371
SPECI CYNL 051726Z AUTO 00000KT 1 3/4SM CLR M32/M38 A3025 RMK AO1 SLP371
SPECI CYNL 051725Z AUTO 00000KT 2SM CLR M33/M38 A3025 RMK AO1 SLP371
SPECI CYNL 051723Z AUTO ///// 1 3/4SM CLR M33/M39 A3025 RMK AO1 SLP372
SPECI CYNL 051716Z AUTO 00000KT 2SM CLR M34/M40 A3025 RMK AO1 SLP374
SPECI CYNL 051714Z AUTO 00000KT 1 3/4SM CLR M34/M40 A3025 RMK AO1 SLP374
SPECI CYNL 051713Z AUTO 00000KT 2 1/2SM CLR M34/M40 A3025 RMK AO1 SLP374
METAR CYNL 051700Z AUTO 00000KT 3SM FEW016 M35/M40 A3025 RMK AO1 SLP373
METAR CYNL 051600Z AUTO 00000KT 9SM CLR M39/M44 A3025 RMK AO1 SLP378
SPECI CYNL 051523Z AUTO 26003KT 3SM CLR M42/M47 A3024 RMK AO1 SLP379
SPECI CYNL 051521Z AUTO 25003KT 1 1/4SM CLR M42/M47 A3024 RMK AO1 SLP378
SPECI CYNL 051520Z AUTO 25003KT 1 3/4SM CLR M42/M47 A3024 RMK AO1 SLP378
SPECI CYNL 051507Z AUTO 25003KT 4SM CLR M42/M47 A3024 RMK AO1 SLP378
SPECI CYNL 051505Z AUTO 25003KT 2SM CLR M42/M47 A3024 RMK AO1 SLP378
SPECI CYNL 051502Z AUTO 26002KT 1 3/4SM CLR M42/M47 A3024 RMK AO1 SLP377
METAR CYNL 051500Z AUTO 26003KT 2 1/2SM CLR M42/M47 A3024 RMK AO1 SLP377
SPECI CYNL 051459Z AUTO 26002KT 1 1/2SM CLR M42/M47 A3024 RMK AO1 SLP377
SPECI CYNL 051458Z AUTO 26002KT 1 1/4SM CLR M42/M47 A3024 RMK AO1 SLP376
SPECI CYNL 051457Z AUTO 26003KT 1 1/2SM CLR M42/M47 A3024 RMK AO1 SLP376
SPECI CYNL 051448Z AUTO 24002KT 4SM CLR M42/M48 A3024 RMK AO1 SLP375
SPECI CYNL 051446Z AUTO 25002KT 2SM CLR M42/M48 A3024 RMK AO1 SLP375
SPECI CYNL 051445Z AUTO 00000KT 1 1/2SM CLR M42/M48 A3023 RMK AO1 SLP375
SPECI CYNL 051442Z AUTO 00000KT 1SM CLR M42/M48 A3023 RMK AO1 SLP375
SPECI CYNL 051441Z AUTO 00000KT 3/4SM CLR M42/M48 A3023 RMK AO1 SLP375
SPECI CYNL 051437Z AUTO 00000KT 5/8SM CLR M42/M48 A3023 RMK AO1 SLP374
SPECI CYNL 051435Z AUTO 26002KT 2 1/2SM CLR M42/M48 A3023 RMK AO1 SLP374
SPECI CYNL 051415Z AUTO 24003KT 3SM CLR M42/M48 A3023 RMK AO1 SLP374
SPECI CYNL 051414Z AUTO 24003KT 2 1/2SM CLR M42/M48 A3023 RMK AO1 SLP374
SPECI CYNL 051413Z AUTO 24003KT 1 3/4SM CLR M42/M48 A3023 RMK AO1 SLP374
SPECI CYNL 051412Z AUTO 23003KT 1 1/4SM CLR M42/M48 A3023 RMK AO1 SLP374
SPECI CYNL 051411Z AUTO 24003KT 1 3/4SM FEW016 M42/M48 A3023 RMK AO1 SLP374
SPECI CYNL 051408Z AUTO 24002KT 4SM FEW016 M42/M48 A3023 RMK AO1 SLP374
SPECI CYNL 051406Z AUTO 25002KT 2 1/2SM FEW016 M42/M48 A3023 RMK AO1 SLP373
SPECI CYNL 051404Z AUTO 25002KT 3SM FEW016 M42/M48 A3023 RMK AO1 SLP373
SPECI CYNL 051403Z AUTO 26002KT 2SM FEW016 M42/M48 A3023 RMK AO1 SLP373
METAR CYNL 051400Z AUTO 25002KT 1 1/2SM CLR M42/M48 A3023 RMK AO1 SLP373
SPECI CYNL 051359Z AUTO 25002KT 1SM CLR M42/M48 A3023 RMK AO1 SLP372
SPECI CYNL 051357Z AUTO 25002KT 1/2SM CLR M42/M48 A3023 RMK AO1 SLP371
SPECI CYNL 051356Z AUTO 24002KT 1SM CLR M42/M48 A3023 RMK AO1 SLP371
SPECI CYNL 051333Z AUTO 24004KT 3SM CLR M42/M47 A3023 RMK AO1 SLP371
SPECI CYNL 051332Z AUTO 24004KT 2 1/2SM CLR M42/M48 A3023 RMK AO1 SLP371
SPECI CYNL 051331Z AUTO 24004KT 1 3/4SM CLR M42/M48 A3023 RMK AO1 SLP371
SPECI CYNL 051330Z AUTO 24004KT 1SM CLR M42/M48 A3023 RMK AO1 SLP372
SPECI CYNL 051329Z AUTO 24004KT 3/4SM CLR M42/M48 A3023 RMK AO1 SLP372
SPECI CYNL 051327Z AUTO 25003KT 5/8SM CLR M42/M48 A3023 RMK AO1 SLP372
SPECI CYNL 051326Z AUTO 25003KT 1 1/4SM CLR M42/M48 A3023 RMK AO1 SLP372
METAR CYNL 051300Z AUTO 24004KT 9SM CLR M42/M48 A3023 RMK AO1 SLP370
SPECI CYNL 051253Z AUTO 00000KT 3SM CLR M42/M48 A3023 RMK AO1 SLP367
SPECI CYNL 051252Z AUTO 00000KT 1 1/2SM CLR M42/M48 A3023 RMK AO1 SLP367
SPECI CYNL 051250Z AUTO 24002KT 1SM CLR M42/M48 A3023 RMK AO1 SLP367
SPECI CYNL 051247Z AUTO ///// 5/8SM CLR M42/M47 A3023 RMK AO1 SLP366
SPECI CYNL 051246Z AUTO ///// 1 1/2SM CLR M42/M47 A3023 RMK AO1 SLP366
SPECI CYNL 051218Z AUTO 00000KT 5SM CLR M42/M47 A3022 RMK AO1 SLP365
SPECI CYNL 051217Z AUTO 00000KT 2SM CLR M42/M47 A3022 RMK AO1 SLP365
SPECI CYNL 051216Z AUTO 00000KT 3/4SM CLR M41/M47 A3022 RMK AO1 SLP364
SPECI CYNL 051211Z AUTO ///// 1/2SM CLR M41/M47 A3022 RMK AO1 SLP364
SPECI CYNL 051205Z AUTO ///// 1 1/4SM CLR M41/M47 A3022 RMK AO1 SLP364
SPECI CYNL 051202Z AUTO 00000KT 1 3/4SM CLR M41/M47 A3022 RMK AO1 SLP364
SPECI CYNL 051201Z AUTO 00000KT 2SM CLR M41/M47 A3022 RMK AO1 SLP364
METAR CYNL 051200Z AUTO 00000KT 3SM CLR M41/M47 A3022 RMK AO1 SLP364
METAR CYNL 051100Z AUTO ///// 9SM FEW014 M41/M47 A3023 RMK AO1 SLP363
SPECI CYNL 051035Z AUTO 00000KT 9SM SCT014 M41/M46 A3023 RMK AO1 SLP357
SPECI CYNL 051033Z AUTO 00000KT 9SM BKN014 M41/M46 A3023 RMK AO1 SLP357
METAR CYNL 051000Z AUTO 00000KT 9SM FEW016 M40/M46 A3024 RMK AO1 SLP359
SPECI CYNL 050946Z AUTO 26003KT 9SM SCT016 M40/M46 A3024 RMK AO1 SLP358
SPECI CYNL 050943Z AUTO 26003KT 9SM BKN016 M40/M46 A3024 RMK AO1 SLP359
SPECI CYNL 050924Z AUTO 24003KT 9SM SCT017 M40/M45 A3025 RMK AO1 SLP360
SPECI CYNL 050912Z AUTO 24003KT 9SM BKN018 M41/M46 A3025 RMK AO1 SLP363
METAR CYNL 050900Z AUTO 24004KT 9SM FEW018 M41/M46 A3025 RMK AO1 SLP362
METAR CYNL 050800Z AUTO 24004KT 9SM SCT015 M39/M45 A3025 RMK AO1 SLP360
SPECI CYNL 050753Z AUTO ///// 9SM SCT015 M39/M44 A3025 RMK AO1 SLP361
METAR CYNL 050700Z AUTO 26002KT 9SM OVC019 M40/M45 A3026 RMK AO1 SLP364
SPECI CYNL 050641Z AUTO 24005KT 9SM BKN019 M40/M45 A3026 RMK AO1 SLP369
SPECI CYNL 050635Z AUTO 24003KT 4SM SCT019 M40/M45 A3027 RMK AO1 SLP369
SPECI CYNL 050633Z AUTO 23004KT 2 1/2SM FEW019 M40/M45 A3027 RMK AO1 SLP370
METAR CYNL 050600Z AUTO 00000KT 9SM CLR M41/M46 A3026 RMK AO1 SLP370
SPECI CYNL 050515Z AUTO 00000KT 4SM CLR M40/M45 A3026 RMK AO1 SLP368
SPECI CYNL 050513Z AUTO 00000KT 2SM CLR M40/M45 A3026 RMK AO1 SLP368
METAR CYNL 050500Z AUTO 27003KT 9SM CLR M40/M45 A3026 RMK AO1 SLP368
METAR CYNL 050400Z AUTO ///// 9SM CLR M39/M44 A3026 RMK AO1 SLP373
METAR CYNL 050300Z AUTO 00000KT 9SM CLR M38/M43 A3027 RMK AO1 SLP375
SPECI CYNL 050234Z AUTO 00000KT 3SM CLR M37/M42 A3027 RMK AO1 SLP378
SPECI CYNL 050233Z AUTO 00000KT 2 1/2SM CLR M37/M42 A3027 RMK AO1 SLP378
SPECI CYNL 050231Z AUTO 00000KT 1 1/2SM CLR M37/M42 A3027 RMK AO1 SLP378
SPECI CYNL 050229Z AUTO 00000KT 1 1/4SM CLR M37/M42 A3027 RMK AO1 SLP378
SPECI CYNL 050228Z AUTO 00000KT 1 3/4SM CLR M37/M42 A3027 RMK AO1 SLP378
METAR CYNL 050200Z AUTO 00000KT 9SM CLR M37/M42 A3027 RMK AO1 SLP379
METAR CYNL 050100Z AUTO 00002KT 9SM CLR M35/M40 A3028 RMK AO1 SLP380
METAR CYNL 050000Z AUTO ///// 9SM CLR M32/M37 A3029 RMK AO1 SLP379
METAR CYNL 042300Z AUTO 00000KT 9SM CLR M28/M33 A3030 RMK AO1 SLP374
METAR CYNL 042200Z AUTO ///// 9SM CLR M27/M32 A3030 RMK AO1 SLP374
METAR CYNL 042100Z AUTO 00000KT 9SM CLR M27/M32 A3031 RMK AO1 SLP375
METAR CYNL 042000Z AUTO ///// 9SM CLR M28/M33 A3032 RMK AO1 SLP381
METAR CYNL 041900Z AUTO 28003KT 9SM CLR M30/M35 A3033 RMK AO1 SLP386
METAR CYNL 041800Z AUTO ///// 9SM FEW007 M31/M36 A3034 RMK AO1 SLP390
SPECI CYNL 041751Z AUTO ///// 9SM FEW007 M31/M36 A3034 RMK AO1 SLP390
METAR CYNL 041700Z AUTO 30005KT 9SM CLR M33/M38 A3034 RMK AO1 SLP393
METAR CYNL 041600Z AUTO 28004KT 9SM CLR M35/M41 A3034 RMK AO1 SLP396
METAR CYNL 041500Z AUTO ///// 9SM CLR M38/M43 A3033 RMK AO1 SLP396
SPECI CYNL 041435Z AUTO 00000KT 4SM CLR M38/M43 A3034 RMK AO1 SLP400
SPECI CYNL 041431Z AUTO 00000KT 2 1/2SM CLR M38/M43 A3034 RMK AO1 SLP401
METAR CYNL 041400Z AUTO ///// 9SM CLR M38/M43 A3034 RMK AO1 SLP399
METAR CYNL 041300Z AUTO 30003KT 4SM CLR M38/M43 A3034 RMK AO1 SLP401
SPECI CYNL 041258Z AUTO 29003KT 3SM CLR M38/M43 A3034 RMK AO1 SLP400
SPECI CYNL 041255Z AUTO 28003KT 2 1/2SM CLR M38/M43 A3034 RMK AO1 SLP400
SPECI CYNL 041216Z AUTO 27005KT 5SM CLR M38/M43 A3035 RMK AO1 SLP401
SPECI CYNL 041213Z AUTO 28004KT 2 1/2SM CLR M38/M43 A3035 RMK AO1 SLP401
METAR CYNL 041200Z AUTO 27004KT 9SM CLR M38/M43 A3035 RMK AO1 SLP401
METAR CYNL 041100Z AUTO 27006KT 9SM CLR M38/M43 A3035 RMK AO1 SLP400
METAR CYNL 041000Z AUTO 27003KT 9SM CLR M37/M42 A3036 RMK AO1 SLP399
METAR CYNL 040900Z AUTO 29004KT 9SM CLR M37/M42 A3035 RMK AO1 SLP392
METAR CYNL 040800Z AUTO 31006KT 9SM CLR M36/M41 A3034 RMK AO1 SLP390
METAR CYNL 040700Z AUTO 31006KT 9SM CLR M36/M40 A3034 RMK AO1 SLP388
METAR CYNL 040600Z AUTO 27005KT 9SM CLR M36/M41 A3034 RMK AO1 SLP393
METAR CYNL 040500Z AUTO 30003KT 9SM CLR M35/M39 A3034 RMK AO1 SLP391
METAR CYNL 040400Z AUTO 30005KT 9SM CLR M34/M39 A3033 RMK AO1 SLP392
METAR CYNL 040300Z AUTO 30006KT 9SM FEW031 M34/M39 A3033 RMK AO1 SLP393
METAR CYNL 040200Z AUTO 28006KT 9SM BKN034 M34/M39 A3034 RMK AO1 SLP396
METAR CYNL 040100Z AUTO 30006KT 9SM CLR M34/M39 A3033 RMK AO1 SLP392
METAR CYNL 040000Z AUTO 28004KT 9SM FEW037 M33/M38 A3032 RMK AO1 SLP387
METAR CYNL 032300Z AUTO ///// 9SM CLR M31/M36 A3030 RMK AO1 SLP380
METAR CYNL 032200Z AUTO 29004KT 9SM CLR M30/M34 A3029 RMK AO1 SLP372
METAR CYNL 032100Z AUTO 28005KT 9SM CLR M30/M34 A3029 RMK AO1 SLP371
METAR CYNL 032000Z AUTO 30005KT 9SM CLR M30/M35 A3028 RMK AO1 SLP369
SPECI CYNL 031922Z AUTO ///// 9SM SCT025 M32/M37 A3028 RMK AO1 SLP371
SPECI CYNL 031916Z AUTO 29005KT 9SM BKN025 M32/M37 A3028 RMK AO1 SLP371
METAR CYNL 031900Z AUTO ///// 9SM OVC024 M32/M37 A3028 RMK AO1 SLP374
SPECI CYNL 031839Z AUTO ///// 9SM OVC023 M32/M37 A3028 RMK AO1 SLP373
SPECI CYNL 031812Z AUTO ///// 9SM BKN027 M33/M38 A3029 RMK AO1 SLP376
METAR CYNL 031800Z AUTO ///// 9SM CLR M33/M38 A3029 RMK AO1 SLP376
METAR CYNL 031700Z AUTO 27005KT 9SM CLR M35/M40 A3029 RMK AO1 PRESRR SLP380
SPECI CYNL 031639Z AUTO 27004KT 9SM FEW015 SCT024 M35/M40 A3028 RMK AO1 PRESRR SLP376
METAR CYNL 031600Z AUTO 29005KT 9SM SCT016 BKN023 M36/M41 A3027 RMK AO1 PRESRR SLP372
METAR CYNL 031500Z AUTO 31004KT 9SM OVC019 M36/M41 A3024 RMK AO1 SLP363
METAR CYNL 031400Z AUTO 28003KT 9SM BKN019 M37/M42 A3024 RMK AO1 SLP361
SPECI CYNL 031339Z AUTO 28003KT 9SM SCT018 BKN024 M37/M42 A3024 RMK AO1 SLP360
SPECI CYNL 031336Z AUTO 28003KT 9SM FEW018 SCT024 M37/M42 A3024 RMK AO1 SLP360
SPECI CYNL 031308Z AUTO 26003KT 9SM BKN022 M37/M42 A3024 RMK AO1 SLP360
METAR CYNL 031300Z AUTO 27003KT 9SM SCT020 M37/M42 A3023 RMK AO1 SLP358
SPECI CYNL 031250Z AUTO 28004KT 9SM FEW016 SCT020 M37/M42 A3023 RMK AO1 SLP355
METAR CYNL 031200Z AUTO 26003KT 9SM OVC015 M38/M43 A3022 RMK AO1 SLP356
SPECI CYNL 031138Z AUTO 27003KT 9SM OVC015 M38/M43 A3021 RMK AO1 SLP353
METAR CYNL 031100Z AUTO 26002KT 9SM BKN011 M37/M43 A3021 RMK AO1 SLP349
SPECI CYNL 031057Z AUTO 00000KT 9SM BKN012 M37/M42 A3021 RMK AO1 SLP347
METAR CYNL 031000Z AUTO 33004KT 9SM FEW016 M37/M42 A3022 RMK AO1 SLP349
SPECI CYNL 030945Z AUTO 00000KT 9SM SCT015 M36/M41 A3022 RMK AO1 SLP348
METAR CYNL 030900Z AUTO ///// 9SM OVC015 M36/M41 A3022 RMK AO1 SLP346
METAR CYNL 030800Z AUTO 32003KT 9SM BKN015 M36/M41 A3020 RMK AO1 SLP342
SPECI CYNL 030737Z AUTO 34003KT 9SM BKN015 M36/M41 A3020 RMK AO1 SLP343
SPECI CYNL 030736Z AUTO 33003KT 9SM SCT015 M36/M41 A3020 RMK AO1 SLP343
SPECI CYNL 030725Z AUTO 34005KT 9SM BKN015 M36/M41 A3020 RMK AO1 SLP342
SPECI CYNL 030721Z AUTO 34005KT 9SM SCT015 M36/M41 A3020 RMK AO1 SLP342
SPECI CYNL 030711Z AUTO 35005KT 9SM BKN015 M36/M41 A3020 RMK AO1 SLP342
METAR CYNL 030700Z AUTO 35005KT 9SM SCT015 M36/M41 A3020 RMK AO1 SLP341
METAR CYNL 030600Z AUTO 34004KT 9SM CLR M35/M40 A3020 RMK AO1 SLP341
METAR CYNL 030500Z AUTO 32003KT 9SM CLR M35/M40 A3019 RMK AO1 SLP339
METAR CYNL 030400Z AUTO 00002KT 9SM CLR M34/M39 A3018 RMK AO1 SLP338
METAR CYNL 030300Z AUTO 00003KT 9SM CLR M34/M39 A3018 RMK AO1 SLP337
METAR CYNL 030200Z AUTO 02005KT 9SM CLR M34/M38 A3017 RMK AO1 SLP335
METAR CYNL 030100Z AUTO ///// 9SM CLR M33/M37 A3016 RMK AO1 SLP329
METAR CYNL 030000Z AUTO ///// 9SM CLR M32/M37 A3015 RMK AO1 SLP327
METAR CYNL 022300Z AUTO ///// 9SM CLR M31/M36 A3016 RMK AO1 SLP326
METAR CYNL 022200Z AUTO ///// 9SM CLR M30/M34 A3015 RMK AO1 SLP321
METAR CYNL 022100Z AUTO ///// 9SM CLR M30/M34 A3015 RMK AO1 SLP324
METAR CYNL 022000Z AUTO ///// 9SM CLR M31/M35 A3014 RMK AO1 PRESFR SLP323
METAR CYNL 021900Z AUTO ///// 9SM CLR M31/M36 A3017 RMK AO1 SLP332
METAR CYNL 021800Z AUTO ///// 9SM CLR M32/M36 A3017 RMK AO1 SLP332
METAR CYNL 021700Z AUTO 03002KT 9SM CLR M34/M38 A3017 RMK AO1 SLP333
METAR CYNL 021600Z AUTO 02003KT 9SM CLR M35/M40 A3016 RMK AO1 SLP333
METAR CYNL 021500Z AUTO 00000KT 9SM CLR M35/M40 A3016 RMK AO1 SLP332
METAR CYNL 021400Z AUTO 02006KT 9SM CLR M35/M39 A3015 RMK AO1 SLP330
METAR CYNL 021300Z AUTO 02004KT 9SM CLR M35/M40 A3017 RMK AO1 SLP333
METAR CYNL 021200Z AUTO 00000KT 9SM SCT150 M35/M40 A3018 RMK AO1 SLP335
METAR CYNL 021100Z AUTO ///// 9SM BKN150 M35/M40 A3018 RMK AO1 SLP334
SPECI CYNL 021040Z AUTO 00000KT 3SM BKN150 M36/M41 A3018 RMK AO1 SLP332